M I D A S
Marine Information and Data Acquisition System
Tripno 775 of the Zeeleeuw from 2004-03-18 07:12:37 to 2004-03-18 11:41:07
Back to CruiseResearch ActivitiesStationsMapUnderway DataData graphs

EquipmentUnitsComment
TimeDGPSUTC
LatitudeDGPSDM.mWGS84
LongitudeDGPSDM.mWGS84
TemperatureSBE03/SBE38deg celciusITS90
ConductivitySBE21S/mITS90
SalinitySBE21 Practical Salinity Units
ChlorophylAChelsea fluorimeterg/lCalibrated in Aceton
Missing or incorrect values are displayed as -999
Sea surface data collected by the RV Zeeleeuw from 2004-03-18 07:12:37 to 2004-03-18 11:41:07
                                                                                    Next 1000 lines
Time Latitude Longitude Temperature Conductivity Salinity ChlorophylA
2004-03-18 07:12:45 51°13.623 2°55.984 7.378308 2.646189 24.789644 21.2647
2004-03-18 07:12:51 51°13.626 2°55.974 7.404435 2.652501 24.908448 20.893896
2004-03-18 07:12:56 51°13.629 2°55.966 7.346894 2.6545 24.968121 21.770341
2004-03-18 07:13:01 51°13.632 2°55.957 7.346894 2.6545 24.968121 21.770341
2004-03-18 07:13:05 51°13.635 2°55.95 7.30368 2.654501 25.000048 21.399537
2004-03-18 07:13:11 51°13.638 2°55.94 7.278197 2.665862 25.146237 21.534375
2004-03-18 07:13:16 51°13.641 2°55.931 7.280448 2.665547 25.157551 22.073725
2004-03-18 07:13:21 51°13.645 2°55.922 7.239245 2.66986 25.219998 22.410819
2004-03-18 07:13:26 51°13.648 2°55.914 7.22965 2.685851 25.419989 22.073725
2004-03-18 07:13:31 51°13.651 2°55.905 7.22965 2.685851 25.419989 22.073725
2004-03-18 07:13:36 51°13.653 2°55.896 7.219319 2.692268 25.511528 22.613076
2004-03-18 07:13:41 51°13.656 2°55.888 7.218976 2.697634 25.580489 22.545657
2004-03-18 07:13:45 51°13.658 2°55.881 7.214471 2.710469 25.735026 21.80405
2004-03-18 07:13:51 51°13.662 2°55.871 7.207419 2.719307 25.843686 22.91646
2004-03-18 07:13:56 51°13.664 2°55.862 7.195076 2.725093 25.917437 21.972597
2004-03-18 07:14:01 51°13.667 2°55.853 7.195076 2.725093 25.917437 21.972597
2004-03-18 07:14:05 51°13.669 2°55.846 7.218437 2.713521 25.80577 21.837759
2004-03-18 07:14:11 51°13.672 2°55.835 7.181016 2.723936 25.916673 22.410819
2004-03-18 07:14:16 51°13.674 2°55.826 7.169403 2.718255 25.864754 21.871469
2004-03-18 07:14:21 51°13.677 2°55.818 7.166757 2.724147 25.929603 22.040016
2004-03-18 07:14:25 51°13.678 2°55.811 7.165287 2.713731 25.825567 21.601794
2004-03-18 07:14:31 51°13.681 2°55.8 7.165287 2.713731 25.825567 21.601794
2004-03-18 07:14:36 51°13.683 2°55.791 7.152543 2.724778 25.948218 22.545657
2004-03-18 07:14:41 51°13.685 2°55.783 7.149945 2.7232 25.944321 22.3434
2004-03-18 07:14:45 51°13.687 2°55.776 7.158817 2.736457 26.090973 21.972597
2004-03-18 07:14:51 51°13.689 2°55.766 7.156612 2.733721 26.069261 21.837759
2004-03-18 07:14:56 51°13.691 2°55.758 7.157249 2.726357 26.000226 21.938888
2004-03-18 07:15:01 51°13.692 2°55.751 7.157249 2.726357 26.000226 21.938888
2004-03-18 07:15:05 51°13.693 2°55.746 7.159013 2.751187 26.264167 22.040016
2004-03-18 07:15:11 51°13.694 2°55.741 7.159356 2.734984 26.09333 21.568084
2004-03-18 07:15:15 51°13.694 2°55.74 7.152445 2.738772 26.133741 22.747913
2004-03-18 07:15:20 51°13.695 2°55.739 7.152347 2.738351 26.129322 22.242272
2004-03-18 07:15:25 51°13.695 2°55.739 7.165581 2.726778 26.009085 22.208563
2004-03-18 07:15:31 51°13.696 2°55.741 7.165581 2.726778 26.009085 22.208563
2004-03-18 07:15:36 51°13.697 2°55.743 7.179693 2.724989 25.994117 21.80405
2004-03-18 07:15:40 51°13.698 2°55.746 7.203011 2.718256 25.926612 22.781623
2004-03-18 07:15:45 51°13.699 2°55.749 7.212071 2.731617 26.067523 21.500665
2004-03-18 07:15:51 51°13.701 2°55.752 7.226076 2.714258 25.8815 21.736631
2004-03-18 07:15:56 51°13.702 2°55.752 7.228915 2.702475 25.748489 22.410819
2004-03-18 07:16:00 51°13.702 2°55.752 7.228915 2.702475 25.748489 22.410819
2004-03-18 07:16:05 51°13.702 2°55.752 7.238657 2.673228 25.43286 22.107435
2004-03-18 07:16:09 51°13.702 2°55.751 7.244825 2.657028 25.257273 22.37711
2004-03-18 07:16:15 51°13.701 2°55.749 7.248153 2.638199 25.051406 21.736631
2004-03-18 07:16:20 51°13.699 2°55.746 7.240419 2.618844 24.845241 22.91646
2004-03-18 07:16:24 51°13.698 2°55.744 7.215009 2.611902 24.766236 22.275982
2004-03-18 07:16:31 51°13.695 2°55.741 7.215009 2.611902 24.766236 22.275982
2004-03-18 07:16:36 51°13.693 2°55.739 7.187042 2.600437 24.642007 22.95017
2004-03-18 07:16:41 51°13.692 2°55.737 7.158229 2.594441 24.5772 22.849042
2004-03-18 07:16:45 51°13.692 2°55.737 7.126069 2.598543 24.621696 22.714204
2004-03-18 07:16:51 51°13.694 2°55.737 7.094726 2.603592 24.682075 22.91646
2004-03-18 07:16:56 51°13.696 2°55.737 7.085404 2.65829 25.269851 22.849042
2004-03-18 07:17:01 51°13.699 2°55.737 7.085404 2.65829 25.269851 22.849042
2004-03-18 07:17:05 51°13.702 2°55.736 7.08138 2.684169 25.562319 22.983879
2004-03-18 07:17:11 51°13.706 2°55.734 7.100564 2.741507 26.184835 22.242272
2004-03-18 07:17:16 51°13.71 2°55.731 7.115868 2.781701 26.629897 21.770341
2004-03-18 07:17:20 51°13.713 2°55.729 7.1321 2.790224 26.732837 21.433247
2004-03-18 07:17:25 51°13.716 2°55.726 7.14019 2.803903 26.884456 22.37711
2004-03-18 07:17:29 51°13.719 2°55.723 7.14019 2.803903 26.884456 22.37711
2004-03-18 07:17:35 51°13.724 2°55.718 7.146514 2.79517 26.789613 21.601794
2004-03-18 07:17:40 51°13.729 2°55.714 7.140582 2.779176 26.614338 22.107435
2004-03-18 07:17:45 51°13.735 2°55.709 7.131168 2.766654 26.473277 22.073725
2004-03-18 07:17:49 51°13.739 2°55.705 7.139307 2.751187 26.303963 22.040016
2004-03-18 07:17:55 51°13.747 2°55.7 7.148965 2.741823 26.199031 21.837759
2004-03-18 07:18:00 51°13.753 2°55.694 7.148965 2.741823 26.199031 21.837759
2004-03-18 07:18:05 51°13.76 2°55.689 7.147494 2.738667 26.165198 22.478238
2004-03-18 07:18:11 51°13.768 2°55.682 7.1522 2.748347 26.271499 22.208563
2004-03-18 07:18:15 51°13.774 2°55.677 7.171412 2.694059 25.702301 22.107435
2004-03-18 07:18:20 51°13.782 2°55.671 7.18469 2.734038 26.11844 23.017589
2004-03-18 07:18:25 51°13.79 2°55.666 7.200562 2.728777 26.059319 23.388392
2004-03-18 07:18:29 51°13.797 2°55.661 7.200562 2.728777 26.059319 23.388392
2004-03-18 07:18:35 51°13.806 2°55.653 7.208349 2.721202 25.977821 22.781623
2004-03-18 07:18:41 51°13.817 2°55.646 7.208153 2.703843 25.789878 22.882751
2004-03-18 07:18:45 51°13.824 2°55.641 7.196105 2.669652 25.421476 22.174853
2004-03-18 07:18:47 51°13.827 2°55.638 7.19248 2.659343 25.304902 21.871469
2004-03-18 07:18:55 51°13.842 2°55.628 7.193313 2.642301 25.118714 21.938888
2004-03-18 07:19:00 51°13.851 2°55.622 7.193313 2.642301 25.118714 21.938888
2004-03-18 07:19:05 51°13.86 2°55.615 7.191206 2.614321 24.823486 22.882751
2004-03-18 07:19:11 51°13.87 2°55.607 7.193508 2.640829 25.103324 22.511947
2004-03-18 07:19:15 51°13.877 2°55.602 7.193606 2.646404 25.164046 22.37711
2004-03-18 07:19:20 51°13.887 2°55.595 7.191353 2.645562 25.158317 23.017589
2004-03-18 07:19:25 51°13.896 2°55.588 7.177929 2.637883 25.079277 21.905178
2004-03-18 07:19:29 51°13.903 2°55.583 7.177929 2.637883 25.079277 21.905178
2004-03-18 07:19:35 51°13.914 2°55.574 7.166267 2.637252 25.07207 23.017589
2004-03-18 07:19:40 51°13.923 2°55.568 7.162591 2.626418 24.958876 22.37711
2004-03-18 07:19:45 51°13.933 2°55.561 7.167933 2.648508 25.1928 22.242272
2004-03-18 07:19:51 51°13.944 2°55.553 7.162738 2.658501 25.302889 22.309691
2004-03-18 07:19:55 51°13.952 2°55.548 7.161121 2.661552 25.341002 21.500665
2004-03-18 07:20:00 51°13.963 2°55.542 7.161121 2.661552 25.341002 21.500665
2004-03-18 07:20:05 51°13.973 2°55.536 7.146759 2.674386 25.47976 21.871469
2004-03-18 07:20:11 51°13.985 2°55.528 7.142053 2.67102 25.445735 21.905178
2004-03-18 07:20:15 51°13.993 2°55.523 7.126657 2.67365 25.474533 21.298409
2004-03-18 07:20:20 51°14.004 2°55.517 7.11783 2.677121 25.513404 20.69164
2004-03-18 07:20:25 51°14.014 2°55.511 7.117192 2.679436 25.543278 21.601794
2004-03-18 07:20:29 51°14.022 2°55.506 7.117192 2.679436 25.543278 21.601794
2004-03-18 07:20:35 51°14.034 2°55.498 7.104194 2.691324 25.674225 20.893896
2004-03-18 07:20:40 51°14.044 2°55.492 7.099436 2.701002 25.783372 20.489383
2004-03-18 07:20:45 51°14.054 2°55.485 7.096689 2.720781 25.99817 21.062443
2004-03-18 07:20:49 51°14.062 2°55.48 7.097768 2.723306 26.033634 20.11858
2004-03-18 07:20:55 51°14.075 2°55.472 7.104243 2.744244 26.256563 19.781486
2004-03-18 07:21:00 51°14.085 2°55.465 7.104243 2.744244 26.256563 19.781486
2004-03-18 07:21:05 51°14.096 2°55.458 7.116947 2.744138 26.26188 20.287127
2004-03-18 07:21:11 51°14.109 2°55.449 7.128717 2.757396 26.404158 20.759059
2004-03-18 07:21:16 51°14.12 2°55.441 7.136464 2.748873 26.315624 19.950033
2004-03-18 07:21:21 51°14.131 2°55.433 7.142396 2.737194 26.189387 19.57923
2004-03-18 07:21:25 51°14.141 2°55.425 7.147347 2.726358 26.070835 20.017452
2004-03-18 07:21:31 51°14.154 2°55.414 7.147347 2.726358 26.070835 20.017452
2004-03-18 07:21:36 51°14.166 2°55.403 7.15274 2.711313 25.906871 20.354546
2004-03-18 07:21:40 51°14.175 2°55.394 7.168668 2.698478 25.767568 20.354546
2004-03-18 07:21:45 51°14.186 2°55.381 7.184739 2.680804 25.575738 20.185999
2004-03-18 07:21:51 51°14.199 2°55.365 7.212463 2.676806 25.530051 20.590512
2004-03-18 07:21:56 51°14.21 2°55.351 7.245412 2.6605 25.35475 20.556802
2004-03-18 07:22:01 51°14.22 2°55.337 7.245412 2.6605 25.35475 20.556802
2004-03-18 07:22:05 51°14.228 2°55.324 7.278589 2.645247 25.187589 20.421965
2004-03-18 07:22:11 51°14.24 2°55.305 7.299034 2.618529 24.897146 19.680358
2004-03-18 07:22:16 51°14.25 2°55.289 7.325242 2.586343 24.54791 19.747777
2004-03-18 07:22:21 51°14.259 2°55.271 7.341567 2.533862 23.983274 20.624221
2004-03-18 07:22:25 51°14.266 2°55.257 7.347236 2.484857 23.455801 20.590512
2004-03-18 07:22:31 51°14.277 2°55.236 7.347236 2.484857 23.455801 20.590512
2004-03-18 07:22:35 51°14.283 2°55.221 7.345477 2.434491 22.917509 21.163571
2004-03-18 07:22:41 51°14.294 2°55.2 7.333942 2.404526 22.593035 20.051161
2004-03-18 07:22:45 51°14.301 2°55.185 7.296638 2.381818 22.347865 21.028734
2004-03-18 07:22:51 51°14.311 2°55.164 7.263177 2.367941 22.197137 21.096153
2004-03-18 07:22:55 51°14.318 2°55.149 7.194929 2.365628 22.169075 21.028734
2004-03-18 07:23:01 51°14.328 2°55.127 7.194929 2.365628 22.169075 21.028734
2004-03-18 07:23:05 51°14.334 2°55.111 7.167296 2.374143 22.262477 20.893896
2004-03-18 07:23:11 51°14.344 2°55.088 7.133571 2.394539 22.483082 21.770341
2004-03-18 07:23:15 51°14.35 2°55.072 7.113759 2.470872 23.290013 20.590512
2004-03-18 07:23:21 51°14.36 2°55.047 7.096787 2.555737 24.203634 20.253418
2004-03-18 07:23:25 51°14.365 2°55.03 7.068964 2.617898 24.878402 19.410683
2004-03-18 07:23:29 51°14.37 2°55.011 7.068964 2.617898 24.878402 19.410683
2004-03-18 07:23:35 51°14.378 2°54.983 7.048445 2.646825 25.201028 20.523093
2004-03-18 07:23:39 51°14.383 2°54.964 7.041129 2.698898 25.768207 20.455674
2004-03-18 07:23:45 51°14.39 2°54.935 7.045793 2.731092 26.121301 19.882614
2004-03-18 07:23:49 51°14.394 2°54.915 7.033517 2.767707 26.525221 19.039879
2004-03-18 07:23:56 51°14.4 2°54.879 6.998985 2.798327 26.868959 19.714067
2004-03-18 07:24:00 51°14.402 2°54.858 6.998985 2.798327 26.868959 19.714067
2004-03-18 07:24:05 51°14.403 2°54.832 6.957845 2.822635 27.136826 20.11858
2004-03-18 07:24:10 51°14.403 2°54.805 6.914072 2.806324 26.96545 19.612939
2004-03-18 07:24:15 51°14.401 2°54.779 6.894635 2.767813 26.563415 19.646648
2004-03-18 07:24:20 51°14.398 2°54.752 6.874896 2.85168 27.472994 19.747777
2004-03-18 07:24:25 51°14.394 2°54.726 6.86175 2.890514 27.913836 20.185999
2004-03-18 07:24:31 51°14.388 2°54.695 6.86175 2.890514 27.913836 20.185999
2004-03-18 07:24:35 51°14.384 2°54.675 6.839785 2.956191 28.643914 19.444392
2004-03-18 07:24:40 51°14.376 2°54.65 6.825203 2.995244 29.085546 19.174717
2004-03-18 07:24:45 51°14.368 2°54.625 6.813919 3.019034 29.36249 18.871332
2004-03-18 07:24:49 51°14.362 2°54.606 6.813525 3.031457 29.509803 19.478101
2004-03-18 07:24:55 51°14.351 2°54.577 6.804901 3.057565 29.802512 18.837623
2004-03-18 07:25:00 51°14.342 2°54.553 6.804901 3.057565 29.802512 18.837623
2004-03-18 07:25:05 51°14.333 2°54.529 6.811603 3.068935 29.940543 18.331982
2004-03-18 07:25:11 51°14.321 2°54.501 6.780352 3.073568 30.004582 18.230853
2004-03-18 07:25:15 51°14.314 2°54.481 6.765461 3.095151 30.244321 18.871332
2004-03-18 07:25:20 51°14.304 2°54.457 6.754463 3.104627 30.352722 18.298272
2004-03-18 07:25:25 51°14.295 2°54.432 6.735717 3.10747 30.385711 18.770204
2004-03-18 07:25:31 51°14.284 2°54.401 6.735717 3.10747 30.385711 18.770204
2004-03-18 07:25:35 51°14.277 2°54.381 6.737838 3.115156 30.481653 18.331982
2004-03-18 07:25:40 51°14.268 2°54.355 6.711734 3.138109 30.743876 17.792631
2004-03-18 07:25:45 51°14.259 2°54.329 6.691297 3.148323 30.866063 18.298272
2004-03-18 07:25:49 51°14.253 2°54.308 6.701763 3.140637 30.794903 18.466819
2004-03-18 07:25:55 51°14.243 2°54.276 6.682063 3.167066 31.09026 18.264563
2004-03-18 07:26:00 51°14.234 2°54.25 6.682063 3.167066 31.09026 18.264563
2004-03-18 07:26:05 51°14.225 2°54.224 6.663197 3.176017 31.20067 19.107298
2004-03-18 07:26:09 51°14.218 2°54.203 6.656973 3.189074 31.361363 17.691503
2004-03-18 07:26:15 51°14.207 2°54.173 6.649958 3.188126 31.35805 18.803913
2004-03-18 07:26:20 51°14.197 2°54.147 6.654503 3.185073 31.335691 18.331982
2004-03-18 07:26:25 51°14.187 2°54.122 6.646895 3.197393 31.48164 18.669076
2004-03-18 07:26:30 51°14.177 2°54.097 6.646895 3.197393 31.48164 18.669076
2004-03-18 07:26:35 51°14.168 2°54.071 6.646401 3.206134 31.586358 18.43311
2004-03-18 07:26:40 51°14.158 2°54.046 6.637012 3.207082 31.604553 17.927469
2004-03-18 07:26:45 51°14.148 2°54.02 6.635431 3.204238 31.577453 18.601657
2004-03-18 07:26:51 51°14.137 2°53.989 6.628611 3.207819 31.619672 17.691503
2004-03-18 07:26:55 51°14.13 2°53.969 6.622384 3.200763 31.545026 17.691503
2004-03-18 07:26:59 51°14.122 2°53.948 6.622384 3.200763 31.545026 17.691503
2004-03-18 07:27:05 51°14.111 2°53.916 6.616897 3.203607 31.579981 18.365691
2004-03-18 07:27:10 51°14.102 2°53.89 6.62357 3.194761 31.486582 18.331982
2004-03-18 07:27:15 51°14.093 2°53.864 6.632021 3.169384 31.216818 18.3994
2004-03-18 07:27:20 51°14.083 2°53.838 6.637358 3.187917 31.425976 19.511811
2004-03-18 07:27:25 51°14.074 2°53.813 6.633652 3.174438 31.283598 19.00617
2004-03-18 07:27:30 51°14.064 2°53.787 6.633652 3.174438 31.283598 19.00617
2004-03-18 07:27:35 51°14.054 2°53.761 6.621445 3.198447 31.54328 18.803913
2004-03-18 07:27:40 51°14.045 2°53.735 6.615167 3.188443 31.43094 19.00617
2004-03-18 07:27:45 51°14.036 2°53.708 6.615662 3.202133 31.576456 18.905042
2004-03-18 07:27:49 51°14.028 2°53.688 6.618084 3.19076 31.454658 19.343264
2004-03-18 07:27:55 51°14.017 2°53.656 6.615711 3.199395 31.552058 18.3994
2004-03-18 07:28:00 51°14.007 2°53.63 6.615711 3.199395 31.552058 18.3994
2004-03-18 07:28:05 51°13.998 2°53.603 6.614475 3.20129 31.578258 18.500529
2004-03-18 07:28:09 51°13.991 2°53.582 6.601819 3.214664 31.725957 18.534238
2004-03-18 07:28:15 51°13.98 2°53.55 6.598704 3.202554 31.595207 18.230853
2004-03-18 07:28:20 51°13.97 2°53.524 6.595144 3.21677 31.751349 18.635366
2004-03-18 07:28:25 51°13.961 2°53.497 6.590496 3.218139 31.768688 18.3994
2004-03-18 07:28:31 51°13.949 2°53.465 6.590496 3.218139 31.768688 18.3994
2004-03-18 07:28:35 51°13.942 2°53.444 6.589507 3.209083 31.676003 17.051024
2004-03-18 07:28:40 51°13.932 2°53.417 6.588468 3.200027 31.582539 18.601657
2004-03-18 07:28:45 51°13.923 2°53.389 6.588122 3.203081 31.619064 17.927469
2004-03-18 07:28:49 51°13.915 2°53.367 6.590249 3.212032 31.720876 19.882614
2004-03-18 07:28:55 51°13.904 2°53.335 6.589309 3.201501 31.608885 18.534238
2004-03-18 07:29:00 51°13.894 2°53.307 6.589309 3.201501 31.608885 18.534238
2004-03-18 07:29:05 51°13.885 2°53.28 6.588369 3.211084 31.715252 18.163435
2004-03-18 07:29:09 51°13.877 2°53.258 6.586639 3.213506 31.742536 17.657794
2004-03-18 07:29:15 51°13.865 2°53.224 6.580358 3.174754 31.316664 18.3994
2004-03-18 07:29:20 51°13.856 2°53.197 6.582484 3.209926 31.701002 17.725212
2004-03-18 07:29:25 51°13.846 2°53.169 6.576252 3.20287 31.626216 18.062306
2004-03-18 07:29:31 51°13.834 2°53.136 6.576252 3.20287 31.626216 18.062306
2004-03-18 07:29:35 51°13.826 2°53.114 6.576252 3.222457 31.841269 17.994888
2004-03-18 07:29:41 51°13.813 2°53.081 6.573037 3.211611 31.726545 17.657794
2004-03-18 07:29:45 51°13.806 2°53.058 6.575016 3.203713 31.642523 17.590375
2004-03-18 07:29:49 51°13.798 2°53.036 6.56997 3.21656 31.785451 18.669076
2004-03-18 07:29:55 51°13.786 2°53.003 6.560076 3.221404 31.840854 17.691503
2004-03-18 07:30:00 51°13.776 2°52.975 6.560076 3.221404 31.840854 17.691503
2004-03-18 07:30:05 51°13.766 2°52.947 6.562203 3.222247 31.853254 18.298272
2004-03-18 07:30:11 51°13.755 2°52.913 6.55493 3.210558 31.725304 17.691503
2004-03-18 07:30:15 51°13.747 2°52.89 6.554584 3.205924 31.677765 18.466819
2004-03-18 07:30:21 51°13.735 2°52.856 6.550081 3.210663 31.734369 17.725212
2004-03-18 07:30:25 51°13.727 2°52.834 6.545974 3.224669 31.890907 18.365691
2004-03-18 07:30:29 51°13.719 2°52.811 6.545974 3.224669 31.890907 18.365691
2004-03-18 07:30:35 51°13.708 2°52.777 6.542411 3.223721 31.883706 19.073589
2004-03-18 07:30:41 51°13.696 2°52.743 6.53959 3.218351 31.828055 18.702785
2004-03-18 07:30:45 51°13.688 2°52.721 6.535235 3.212032 31.761236 19.54552
2004-03-18 07:30:49 51°13.68 2°52.698 6.532859 3.217719 31.827487 18.736494
2004-03-18 07:30:55 51°13.669 2°52.664 6.531523 3.205082 31.692255 18.803913
2004-03-18 07:31:00 51°13.659 2°52.635 6.531523 3.205082 31.692255 18.803913
2004-03-18 07:31:05 51°13.65 2°52.606 6.531523 3.224669 31.91001 19.612939
2004-03-18 07:31:10 51°13.64 2°52.578 6.531622 3.205819 31.706657 18.567947
2004-03-18 07:31:15 51°13.631 2°52.549 6.527711 3.226881 31.941426 19.714067
2004-03-18 07:31:20 51°13.621 2°52.521 6.527216 3.226565 31.937962 18.534238
2004-03-18 07:31:25 51°13.611 2°52.493 6.526375 3.211506 31.77529 18.938751
2004-03-18 07:31:31 51°13.599 2°52.458 6.526375 3.211506 31.77529 18.938751
2004-03-18 07:31:35 51°13.592 2°52.435 6.524395 3.228566 31.963094 18.97246
2004-03-18 07:31:39 51°13.584 2°52.413 6.526622 3.225301 31.928093 19.376973
2004-03-18 07:31:45 51°13.572 2°52.378 6.524939 3.226881 31.947807 19.57923
2004-03-18 07:31:50 51°13.562 2°52.35 6.5239 3.229408 31.976325 18.938751
2004-03-18 07:31:55 51°13.553 2°52.321 6.52786 3.208347 31.745432 18.803913
2004-03-18 07:32:00 51°13.544 2°52.292 6.52786 3.208347 31.745432 18.803913
2004-03-18 07:32:05 51°13.534 2°52.263 6.52687 3.220141 31.875499 18.871332
2004-03-18 07:32:09 51°13.526 2°52.24 6.523702 3.229514 31.979077 19.376973
2004-03-18 07:32:15 51°13.515 2°52.206 6.524494 3.223511 31.914839 19.00617
2004-03-18 07:32:20 51°13.505 2°52.177 6.524494 3.23004 31.98645 19.848905
2004-03-18 07:32:25 51°13.495 2°52.148 6.521721 3.225091 31.931365 18.871332
2004-03-18 07:32:29 51°13.488 2°52.125 6.521721 3.225091 31.931365 18.871332
2004-03-18 07:32:35 51°13.476 2°52.091 6.525583 3.230461 31.990272 18.3994
2004-03-18 07:32:40 51°13.466 2°52.062 6.526573 3.192446 31.573629 18.635366
2004-03-18 07:32:45 51°13.457 2°52.034 6.523652 3.220352 31.880196 18.905042
2004-03-18 07:32:49 51°13.449 2°52.011 6.522167 3.231093 31.999601 18.3994
2004-03-18 07:32:55 51°13.438 2°51.976 6.523603 3.22825 31.968409 17.826341
2004-03-18 07:33:00 51°13.429 2°51.947 6.523603 3.22825 31.968409 17.826341
2004-03-18 07:33:05 51°13.419 2°51.918 6.525088 3.212875 31.79823 19.309554
2004-03-18 07:33:11 51°13.408 2°51.884 6.527959 3.232146 32.011954 19.444392
2004-03-18 07:33:15 51°13.4 2°51.861 6.528998 3.193709 31.590622 19.141007
2004-03-18 07:33:20 51°13.39 2°51.832 6.529147 3.234779 32.040041 19.848905
2004-03-18 07:33:25 51°13.381 2°51.804 6.53469 3.223511 31.916433 18.702785
2004-03-18 07:33:31 51°13.369 2°51.769 6.53469 3.223511 31.916433 18.702785
2004-03-18 07:33:35 51°13.361 2°51.746 6.53672 3.2352 32.042262 19.141007
2004-03-18 07:33:41 51°13.349 2°51.712 6.542114 3.218035 31.851613 19.714067
2004-03-18 07:33:45 51°13.341 2°51.689 6.543302 3.229408 31.977123 18.97246
2004-03-18 07:33:51 51°13.33 2°51.655 6.548993 3.23836 32.072123 18.331982
2004-03-18 07:33:55 51°13.322 2°51.632 6.550032 3.224037 31.91344 17.86005
2004-03-18 07:34:00 51°13.312 2°51.603 6.550032 3.224037 31.91344 17.86005
2004-03-18 07:34:05 51°13.303 2°51.575 6.555079 3.186654 31.499994 19.646648
2004-03-18 07:34:09 51°13.295 2°51.552 6.558938 3.240255 32.086512 18.770204
2004-03-18 07:34:15 51°13.283 2°51.518 6.562154 3.234568 32.020136 19.208426
2004-03-18 07:34:21 51°13.272 2°51.483 6.56725 3.224775 31.909572 18.43311
2004-03-18 07:34:25 51°13.264 2°51.461 6.568833 3.241098 32.085342 18.466819
2004-03-18 07:34:29 51°13.256 2°51.438 6.568833 3.241098 32.085342 18.466819
2004-03-18 07:34:35 51°13.244 2°51.403 6.574571 3.22509 31.906664 18.365691
2004-03-18 07:34:41 51°13.233 2°51.369 6.575807 3.23025 31.959229 19.511811
2004-03-18 07:34:45 51°13.225 2°51.346 6.579072 3.242993 32.094919 19.376973
2004-03-18 07:34:49 51°13.217 2°51.323 6.582089 3.237833 32.035948 18.365691
2004-03-18 07:34:56 51°13.204 2°51.283 6.587084 3.252471 32.193245 18.803913
2004-03-18 07:34:59 51°13.198 2°51.266 6.587084 3.252471 32.193245 18.803913
2004-03-18 07:35:05 51°13.186 2°51.232 6.589457 3.240571 32.061164 19.410683
2004-03-18 07:35:11 51°13.174 2°51.197 6.592919 3.251839 32.181498 19.00617
2004-03-18 07:35:15 51°13.166 2°51.175 6.595985 3.238991 32.037458 18.601657
2004-03-18 07:35:20 51°13.156 2°51.146 6.599594 3.250259 32.156959 18.197144
2004-03-18 07:35:25 51°13.146 2°51.118 6.604934 3.244467 32.091872 18.837623
2004-03-18 07:35:31 51°13.135 2°51.083 6.604934 3.244467 32.091872 18.837623
2004-03-18 07:35:35 51°13.128 2°51.06 6.606417 3.24552 32.099411 18.062306
2004-03-18 07:35:40 51°13.118 2°51.032 6.607258 3.251944 32.167411 18.3994
2004-03-18 07:35:45 51°13.108 2°51.003 6.612498 3.239517 32.027256 17.961178
2004-03-18 07:35:50 51°13.099 2°50.974 6.613684 3.182125 31.396377 18.264563
2004-03-18 07:35:55 51°13.089 2°50.946 6.618331 3.243098 32.060883 18.702785
2004-03-18 07:36:00 51°13.08 2°50.917 6.618331 3.243098 32.060883 18.702785
2004-03-18 07:36:05 51°13.07 2°50.889 6.619715 3.236885 31.990449 18.905042
2004-03-18 07:36:09 51°13.062 2°50.866 6.620852 3.256894 32.207218 18.331982
2004-03-18 07:36:15 51°13.051 2°50.832 6.623916 3.242255 32.043671 18.298272
2004-03-18 07:36:20 51°13.041 2°50.803 6.628611 3.24373 32.057419 18.230853
2004-03-18 07:36:25 51°13.032 2°50.775 6.629649 3.238254 31.995873 18.331982
2004-03-18 07:36:31 51°13.02 2°50.741 6.629649 3.238254 31.995873 18.331982
2004-03-18 07:36:35 51°13.013 2°50.718 6.63385 3.238043 31.991177 18.230853
2004-03-18 07:36:41 51°13.002 2°50.684 6.636667 3.236568 31.972652 18.736494
2004-03-18 07:36:45 51°12.994 2°50.661 6.641015 3.262581 32.255079 18.230853
2004-03-18 07:36:50 51°12.985 2°50.633 6.644375 3.249732 32.111157 17.758922
2004-03-18 07:36:55 51°12.975 2°50.604 6.648278 3.260474 32.225583 18.197144
2004-03-18 07:37:00 51°12.966 2°50.576 6.648278 3.260474 32.225583 18.197144
2004-03-18 07:37:05 51°12.956 2°50.548 6.652231 3.240044 32.000326 18.905042
2004-03-18 07:37:10 51°12.947 2°50.519 6.656528 3.243729 32.035875 18.331982
2004-03-18 07:37:15 51°12.937 2°50.491 6.659789 3.26079 32.22022 18.837623
2004-03-18 07:37:21 51°12.925 2°50.457 6.665667 3.249416 32.092516 17.590375
2004-03-18 07:37:25 51°12.918 2°50.435 6.670063 3.250259 32.099339 17.758922
2004-03-18 07:37:30 51°12.908 2°50.406 6.670063 3.250259 32.099339 17.758922
2004-03-18 07:37:35 51°12.898 2°50.378 6.674853 3.260158 32.203682 18.736494
2004-03-18 07:37:41 51°12.887 2°50.344 6.68073 3.259737 32.195867 18.871332
2004-03-18 07:37:45 51°12.879 2°50.321 6.68394 3.246046 32.041289 18.3994
2004-03-18 07:37:50 51°12.87 2°50.292 6.688285 3.250785 32.089131 17.792631
2004-03-18 07:37:55 51°12.86 2°50.264 6.692383 3.259737 32.181456 18.230853
2004-03-18 07:38:00 51°12.851 2°50.235 6.692383 3.259737 32.181456 18.230853
2004-03-18 07:38:05 51°12.841 2°50.207 6.696579 3.271216 32.303859 17.522956
2004-03-18 07:38:10 51°12.831 2°50.179 6.70038 3.256156 32.135095 17.792631
2004-03-18 07:38:15 51°12.822 2°50.15 6.705564 3.260369 32.177167 17.185862
2004-03-18 07:38:21 51°12.81 2°50.116 6.707439 3.252049 32.083006 18.230853
2004-03-18 07:38:25 51°12.803 2°50.093 6.710253 3.267425 32.246332 17.927469
2004-03-18 07:38:30 51°12.793 2°50.065 6.710253 3.267425 32.246332 17.927469
2004-03-18 07:38:35 51°12.784 2°50.037 6.715287 3.245203 32.000239 17.893759
2004-03-18 07:38:40 51°12.774 2°50.008 6.718446 3.260368 32.161977 17.421828
2004-03-18 07:38:45 51°12.765 2°49.98 6.721604 3.257209 32.125049 17.489247
2004-03-18 07:38:50 51°12.756 2°49.951 6.725947 3.268794 32.248484 19.478101
2004-03-18 07:38:55 51°12.746 2°49.923 6.729845 3.264792 32.200733 17.758922
2004-03-18 07:39:01 51°12.735 2°49.888 6.729845 3.264792 32.200733 17.758922
2004-03-18 07:39:05 51°12.727 2°49.866 6.734088 3.272269 32.27927 17.3207
2004-03-18 07:39:09 51°12.719 2°49.843 6.737049 3.267003 32.218506 17.455537
2004-03-18 07:39:16 51°12.706 2°49.803 6.7407 3.251206 32.042739 17.961178
2004-03-18 07:39:20 51°12.699 2°49.78 6.745682 3.261316 32.149176 18.365691
2004-03-18 07:39:25 51°12.689 2°49.752 6.748839 3.270057 32.24148 17.691503
2004-03-18 07:39:31 51°12.678 2°49.718 6.748839 3.270057 32.24148 17.691503
2004-03-18 07:39:35 51°12.67 2°49.695 6.753131 3.252996 32.051945 17.152153
2004-03-18 07:39:39 51°12.662 2°49.673 6.756682 3.261527 32.141104 17.758922
2004-03-18 07:39:45 51°12.651 2°49.638 6.757767 3.261948 32.142514 16.680221
2004-03-18 07:39:49 51°12.644 2°49.616 6.761762 3.267635 32.201425 17.624084
2004-03-18 07:39:55 51°12.632 2°49.581 6.763784 3.239727 31.89367 17.994888
2004-03-18 07:40:00 51°12.623 2°49.552 6.763784 3.239727 31.89367 17.994888
2004-03-18 07:40:05 51°12.613 2°49.524 6.7626 3.255945 32.066632 17.455537
2004-03-18 07:40:11 51°12.602 2°49.491 6.765066 3.261421 32.124011 17.421828
2004-03-18 07:40:15 51°12.594 2°49.468 6.766496 3.269952 32.213143 17.994888
2004-03-18 07:40:20 51°12.584 2°49.439 6.765609 3.273954 32.256039 17.556665
2004-03-18 07:40:25 51°12.575 2°49.411 6.767138 3.275217 32.268239 17.556665
2004-03-18 07:40:29 51°12.567 2°49.388 6.767138 3.275217 32.268239 17.556665
2004-03-18 07:40:35 51°12.556 2°49.353 6.767384 3.255945 32.056295 18.197144
2004-03-18 07:40:40 51°12.547 2°49.325 6.77054 3.271321 32.223296 19.174717
2004-03-18 07:40:45 51°12.537 2°49.296 6.770096 3.265528 32.160868 18.43311
2004-03-18 07:40:49 51°12.53 2°49.274 6.77128 3.283116 32.351298 18.298272
2004-03-18 07:40:55 51°12.518 2°49.239 6.7734 3.266371 32.167671 18.500529
2004-03-18 07:40:59 51°12.51 2°49.217 6.7734 3.266371 32.167671 18.500529
2004-03-18 07:41:05 51°12.499 2°49.182 6.773696 3.271005 32.216651 17.927469
2004-03-18 07:41:10 51°12.49 2°49.154 6.77552 3.28617 32.383054 18.365691
2004-03-18 07:41:15 51°12.48 2°49.125 6.775619 3.281747 32.332335 17.792631
2004-03-18 07:41:20 51°12.471 2°49.097 6.775619 3.262263 32.118867 18.803913
2004-03-18 07:41:25 51°12.461 2°49.068 6.777197 3.268161 32.182423 19.916324
2004-03-18 07:41:31 51°12.45 2°49.034 6.777197 3.268161 32.182423 19.916324
2004-03-18 07:41:35 51°12.442 2°49.011 6.779169 3.274796 32.252442 18.905042
2004-03-18 07:41:40 51°12.433 2°48.982 6.781092 3.277534 32.281533 18.534238
2004-03-18 07:41:45 51°12.424 2°48.954 6.782719 3.27269 32.229452 17.624084
2004-03-18 07:41:50 51°12.414 2°48.925 6.784987 3.238989 31.861131 17.758922
2004-03-18 07:41:55 51°12.405 2°48.896 6.786811 3.272479 32.224756 18.702785
2004-03-18 07:42:00 51°12.395 2°48.868 6.786811 3.272479 32.224756 18.702785
2004-03-18 07:42:05 51°12.386 2°48.839 6.787353 3.277113 32.274534 18.669076
2004-03-18 07:42:09 51°12.378 2°48.817 6.789374 3.268582 32.179043 17.624084
2004-03-18 07:42:15 51°12.367 2°48.782 6.79105 3.291015 32.422314 19.680358
2004-03-18 07:42:20 51°12.357 2°48.754 6.793466 3.280694 32.308018 17.28699
2004-03-18 07:42:25 51°12.348 2°48.725 6.794402 3.281747 32.318714 19.107298
2004-03-18 07:42:30 51°12.338 2°48.697 6.796867 3.290594 32.412893 17.826341
2004-03-18 07:42:35 51°12.329 2°48.668 6.796867 3.290594 32.412893 17.826341
2004-03-18 07:42:40 51°12.32 2°48.64 6.801993 3.276376 32.256094 18.163435
2004-03-18 07:42:45 51°12.31 2°48.611 6.805443 3.275954 32.249899 17.354409
2004-03-18 07:42:50 51°12.302 2°48.582 6.805147 3.28933 32.394277 18.365691
2004-03-18 07:42:55 51°12.293 2°48.553 6.808252 3.276165 32.249001 18.197144
2004-03-18 07:43:01 51°12.283 2°48.518 6.808252 3.276165 32.249001 18.197144
2004-03-18 07:43:05 51°12.276 2°48.495 6.808794 3.280378 32.291766 17.961178
2004-03-18 07:43:09 51°12.269 2°48.472 6.810273 3.268161 32.155321 17.691503
2004-03-18 07:43:16 51°12.256 2°48.432 6.811308 3.278482 32.266287 17.590375
2004-03-18 07:43:19 51°12.251 2°48.414 6.812145 3.288908 32.377645 18.635366
2004-03-18 07:43:25 51°12.24 2°48.38 6.812835 3.272268 32.194529 18.500529
2004-03-18 07:43:30 51°12.231 2°48.351 6.812835 3.272268 32.194529 18.500529
2004-03-18 07:43:35 51°12.222 2°48.323 6.812589 3.288592 32.371792 17.691503
2004-03-18 07:43:41 51°12.211 2°48.288 6.811653 3.276375 32.237722 17.556665
2004-03-18 07:43:45 51°12.204 2°48.265 6.813969 3.292805 32.41616 17.489247
2004-03-18 07:43:49 51°12.197 2°48.242 6.813328 3.265633 32.119013 17.152153
2004-03-18 07:43:55 51°12.187 2°48.208 6.812293 3.278587 32.261044 17.455537
2004-03-18 07:43:59 51°12.18 2°48.184 6.812293 3.278587 32.261044 17.455537
2004-03-18 07:44:05 51°12.17 2°48.15 6.813722 3.291963 32.40536 17.455537
2004-03-18 07:44:11 51°12.159 2°48.115 6.812195 3.298703 32.478927 17.118443
2004-03-18 07:44:15 51°12.153 2°48.092 6.812983 3.289119 32.374331 16.680221
2004-03-18 07:44:20 51°12.144 2°48.063 6.81116 3.288171 32.36479 17.624084
2004-03-18 07:44:25 51°12.135 2°48.034 6.812934 3.294912 32.437543 17.657794
2004-03-18 07:44:29 51°12.128 2°48.011 6.812934 3.294912 32.437543 17.657794
2004-03-18 07:44:35 51°12.117 2°47.977 6.811406 3.288803 32.370082 17.185862
2004-03-18 07:44:40 51°12.109 2°47.948 6.809681 3.300283 32.496173 17.893759
2004-03-18 07:44:45 51°12.1 2°47.919 6.809583 3.317029 32.679058 17.489247
2004-03-18 07:44:50 51°12.091 2°47.89 6.811111 3.296491 32.454785 17.624084
2004-03-18 07:44:55 51°12.082 2°47.861 6.810076 3.314396 32.650292 17.961178
2004-03-18 07:45:00 51°12.074 2°47.833 6.810076 3.314396 32.650292 17.961178
2004-03-18 07:45:05 51°12.065 2°47.804 6.812244 3.303548 32.532624 18.062306
2004-03-18 07:45:11 51°12.055 2°47.769 6.812293 3.285538 32.337666 18.3994
2004-03-18 07:45:15 51°12.048 2°47.746 6.81249 3.308709 32.590593 18.938751
2004-03-18 07:45:20 51°12.039 2°47.717 6.811258 3.288592 32.37099 17.893759
2004-03-18 07:45:25 51°12.031 2°47.688 6.813427 3.303864 32.536073 17.421828
2004-03-18 07:45:31 51°12.02 2°47.653 6.813427 3.303864 32.536073 17.421828
2004-03-18 07:45:35 51°12.013 2°47.63 6.814412 3.315555 32.664567 17.354409
2004-03-18 07:45:40 51°12.005 2°47.601 6.813624 3.293227 32.420758 18.230853
2004-03-18 07:45:45 51°11.996 2°47.572 6.815447 3.290699 32.393173 19.646648
2004-03-18 07:45:51 51°11.986 2°47.537 6.813772 3.32356 32.750411 17.86005
2004-03-18 07:45:55 51°11.979 2°47.514 6.816975 3.321137 32.723939 18.466819
2004-03-18 07:46:00 51°11.97 2°47.485 6.816975 3.321137 32.723939 18.466819
2004-03-18 07:46:05 51°11.962 2°47.456 6.81456 3.267318 32.135788 18.500529
2004-03-18 07:46:10 51°11.953 2°47.427 6.816088 3.291541 32.399158 18.331982
2004-03-18 07:46:15 51°11.944 2°47.399 6.815151 3.241621 31.855084 17.556665
2004-03-18 07:46:20 51°11.935 2°47.37 6.813328 3.328299 32.80059 17.725212
2004-03-18 07:46:25 51°11.926 2°47.341 6.813919 3.30755 32.573907 18.129725
2004-03-18 07:46:29 51°11.919 2°47.318 6.813919 3.30755 32.573907 18.129725
2004-03-18 07:46:35 51°11.909 2°47.284 6.814314 3.327773 32.794833 17.590375
2004-03-18 07:46:40 51°11.9 2°47.255 6.811998 3.328299 32.80059 18.197144
2004-03-18 07:46:45 51°11.891 2°47.226 6.812885 3.326719 32.784133 18.669076
2004-03-18 07:46:51 51°11.88 2°47.192 6.812343 3.316082 32.668702 18.938751
2004-03-18 07:46:55 51°11.873 2°47.169 6.811702 3.321558 32.728543 18.736494
2004-03-18 07:47:00 51°11.865 2°47.14 6.811702 3.321558 32.728543 18.736494
2004-03-18 07:47:05 51°11.856 2°47.111 6.812638 3.329669 32.816369 17.758922
2004-03-18 07:47:09 51°11.849 2°47.088 6.813722 3.332618 32.849423 18.298272
2004-03-18 07:47:15 51°11.838 2°47.053 6.814166 3.332723 32.851388 18.331982
2004-03-18 07:47:21 51°11.828 2°47.018 6.81525 3.332196 32.84563 18.3994
2004-03-18 07:47:25 51°11.821 2°46.995 6.817418 3.327141 32.790362 17.86005
2004-03-18 07:47:30 51°11.812 2°46.966 6.817418 3.327141 32.790362 17.86005
2004-03-18 07:47:35 51°11.803 2°46.937 6.816925 3.324613 32.761922 18.129725
2004-03-18 07:47:40 51°11.795 2°46.908 6.817615 3.332723 32.849761 19.208426
2004-03-18 07:47:45 51°11.786 2°46.879 6.820719 3.332196 32.84319 20.253418
2004-03-18 07:47:49 51°11.78 2°46.856 6.822345 3.330932 32.829373 18.43311
2004-03-18 07:47:55 51°11.77 2°46.821 6.82407 3.326509 32.780207 18.365691
2004-03-18 07:48:00 51°11.763 2°46.791 6.82407 3.326509 32.780207 18.365691
2004-03-18 07:48:05 51°11.755 2°46.761 6.824563 3.331038 32.828898 18.601657
2004-03-18 07:48:11 51°11.747 2°46.725 6.827322 3.331564 32.832216 18.365691
2004-03-18 07:48:15 51°11.741 2°46.702 6.828307 3.333566 32.852464 18.43311
2004-03-18 07:48:20 51°11.733 2°46.672 6.828652 3.334935 32.865805 18.702785
2004-03-18 07:48:25 51°11.725 2°46.642 6.831805 3.32851 32.794771 17.758922
2004-03-18 07:48:29 51°11.719 2°46.618 6.831805 3.32851 32.794771 17.758922
2004-03-18 07:48:35 51°11.71 2°46.583 6.833283 3.321453 32.716049 17.522956
2004-03-18 07:48:40 51°11.702 2°46.553 6.833036 3.332723 32.837563 18.197144
2004-03-18 07:48:45 51°11.695 2°46.524 6.83678 3.342834 32.947278 17.118443
2004-03-18 07:48:49 51°11.689 2°46.5 6.833775 3.335988 32.871622 17.86005
2004-03-18 07:48:55 51°11.68 2°46.465 6.834859 3.341149 32.925593 17.657794
2004-03-18 07:49:00 51°11.673 2°46.435 6.834859 3.341149 32.925593 17.657794
2004-03-18 07:49:05 51°11.666 2°46.405 6.834958 3.344204 32.95817 17.792631
2004-03-18 07:49:09 51°11.661 2°46.381 6.835943 3.34315 32.94584 17.421828
2004-03-18 07:49:15 51°11.652 2°46.346 6.836879 3.345784 32.974628 17.657794
2004-03-18 07:49:21 51°11.644 2°46.311 6.843381 3.326509 32.764792 17.489247
2004-03-18 07:49:25 51°11.638 2°46.287 6.851113 3.343993 32.954236 18.3994
2004-03-18 07:49:29 51°11.633 2°46.263 6.851113 3.343993 32.954236 18.3994
2004-03-18 07:49:35 51°11.624 2°46.227 6.858106 3.342413 32.936149 17.927469
2004-03-18 07:49:40 51°11.617 2°46.198 6.861455 3.326403 32.757156 17.354409
2004-03-18 07:49:45 51°11.61 2°46.168 6.864065 3.340622 32.90599 20.489383
2004-03-18 07:49:50 51°11.602 2°46.138 6.865739 3.293753 32.388811 19.511811
2004-03-18 07:49:55 51°11.594 2°46.108 6.867068 3.331985 32.800276 18.466819
2004-03-18 07:50:00 51°11.586 2°46.079 6.867068 3.331985 32.800276 18.466819
2004-03-18 07:50:05 51°11.577 2°46.05 6.873321 3.337884 32.860622 17.961178
2004-03-18 07:50:09 51°11.57 2°46.026 6.87721 3.334408 32.821046 17.590375
2004-03-18 07:50:15 51°11.56 2°45.991 6.880705 3.349364 32.981134 18.365691
2004-03-18 07:50:20 51°11.553 2°45.962 6.886415 3.347574 32.959129 17.758922
2004-03-18 07:50:25 51°11.545 2°45.932 6.887301 3.339885 32.87191 17.792631
2004-03-18 07:50:30 51°11.538 2°45.903 6.887301 3.339885 32.87191 17.792631
2004-03-18 07:50:35 51°11.53 2°45.873 6.882724 3.332933 32.791974 16.71393
2004-03-18 07:50:41 51°11.521 2°45.837 6.888975 3.338726 32.851952 16.579093
2004-03-18 07:50:45 51°11.515 2°45.814 6.886711 3.34315 32.896989 16.646512
2004-03-18 07:50:48 51°11.511 2°45.796 6.890156 3.347468 32.940877 16.74764
2004-03-18 07:50:56 51°11.499 2°45.749 6.890205 3.349048 32.959754 16.579093
2004-03-18 07:51:00 51°11.493 2°45.725 6.890205 3.349048 32.959754 16.579093
2004-03-18 07:51:05 51°11.485 2°45.696 6.893011 3.307971 32.509285 15.500392
2004-03-18 07:51:11 51°11.476 2°45.659 6.893651 3.360424 33.080718 16.612802
2004-03-18 07:51:15 51°11.471 2°45.636 6.892322 3.323664 32.677928 16.343127
2004-03-18 07:51:20 51°11.463 2°45.606 6.893749 3.342412 32.883253 16.781349
2004-03-18 07:51:25 51°11.456 2°45.576 6.895816 3.350628 32.970487 15.500392
2004-03-18 07:51:29 51°11.45 2°45.552 6.895816 3.350628 32.970487 15.500392
2004-03-18 07:51:35 51°11.442 2°45.516 6.896702 3.341675 32.870334 15.770067
2004-03-18 07:51:40 51°11.434 2°45.486 6.901525 3.361477 33.087319 15.500392
2004-03-18 07:51:45 51°11.427 2°45.456 6.897194 3.350839 32.969529 15.803777
2004-03-18 07:51:51 51°11.418 2°45.421 6.899163 3.346836 32.924216 15.736358
2004-03-18 07:51:55 51°11.412 2°45.397 6.894684 3.354736 33.009628 15.770067
2004-03-18 07:52:00 51°11.404 2°45.368 6.894684 3.354736 33.009628 15.770067
2004-03-18 07:52:05 51°11.397 2°45.339 6.900393 3.360108 33.066646 15.567811
2004-03-18 07:52:11 51°11.388 2°45.303 6.906446 3.352208 32.979588 15.298136
2004-03-18 07:52:15 51°11.382 2°45.279 6.899113 3.357475 33.036263 15.06217
2004-03-18 07:52:21 51°11.373 2°45.244 6.901672 3.364005 33.109204 16.140871
2004-03-18 07:52:25 51°11.367 2°45.22 6.903296 3.348732 32.942466 15.972324
2004-03-18 07:52:31 51°11.359 2°45.184 6.903296 3.348732 32.942466 15.972324
2004-03-18 07:52:36 51°11.351 2°45.154 6.901131 3.360108 33.063379 15.230717
2004-03-18 07:52:40 51°11.346 2°45.131 6.898523 3.354947 33.007036 15.63523
2004-03-18 07:52:45 51°11.338 2°45.101 6.905707 3.356632 33.026248 16.646512
2004-03-18 07:52:51 51°11.329 2°45.066 6.905314 3.362952 33.094431 15.466683
2004-03-18 07:52:55 51°11.322 2°45.042 6.90433 3.366112 33.128939 15.668939
2004-03-18 07:53:00 51°11.315 2°45.013 6.90433 3.366112 33.128939 15.668939
2004-03-18 07:53:05 51°11.307 2°44.983 6.905117 3.359476 33.055663 15.500392
2004-03-18 07:53:09 51°11.301 2°44.959 6.913236 3.347152 32.921159 17.185862
2004-03-18 07:53:16 51°11.291 2°44.918 6.907676 3.357369 33.031849 14.893623
2004-03-18 07:53:20 51°11.285 2°44.894 6.905953 3.35442 32.998842 15.972324
2004-03-18 07:53:25 51°11.278 2°44.865 6.912399 3.361582 33.074579 16.17458
2004-03-18 07:53:29 51°11.272 2°44.841 6.912399 3.361582 33.074579 16.17458
2004-03-18 07:53:35 51°11.263 2°44.805 6.914712 3.362109 33.081145 15.197007
2004-03-18 07:53:40 51°11.255 2°44.776 6.918352 3.350207 32.950422 15.264426
2004-03-18 07:53:45 51°11.247 2°44.747 6.909496 3.358317 33.038934 15.871195
2004-03-18 07:53:49 51°11.241 2°44.723 6.923419 3.364637 33.106294 15.264426
2004-03-18 07:53:55 51°11.232 2°44.688 6.908611 3.287643 32.263987 15.230717
2004-03-18 07:54:01 51°11.223 2°44.652 6.908611 3.287643 32.263987 15.230717
2004-03-18 07:54:05 51°11.217 2°44.628 6.912547 3.35621 33.010235 15.06217
2004-03-18 07:54:09 51°11.211 2°44.604 6.916975 3.356948 33.018281 15.770067
2004-03-18 07:54:15 51°11.203 2°44.569 6.915253 3.356632 33.011573 15.298136
2004-03-18 07:54:20 51°11.195 2°44.539 6.920911 3.358949 33.040122 15.567811
2004-03-18 07:54:25 51°11.188 2°44.51 6.915843 3.383597 33.310924 15.230717
2004-03-18 07:54:31 51°11.179 2°44.474 6.915843 3.383597 33.310924 15.230717
2004-03-18 07:54:35 51°11.173 2°44.45 6.92278 3.376961 33.235141 14.725076
2004-03-18 07:54:40 51°11.166 2°44.42 6.917516 3.362425 33.076427 15.399264
2004-03-18 07:54:45 51°11.158 2°44.391 6.926666 3.364848 33.102055 15.534101
2004-03-18 07:54:49 51°11.152 2°44.367 6.920812 3.353472 32.97791 16.006033
2004-03-18 07:54:55 51°11.144 2°44.332 6.918008 3.384545 33.31388 15.129589
2004-03-18 07:55:00 51°11.136 2°44.302 6.918008 3.384545 33.31388 15.129589
2004-03-18 07:55:05 51°11.129 2°44.272 6.921058 3.371484 33.169591 15.298136
2004-03-18 07:55:09 51°11.123 2°44.249 6.919189 3.374012 33.196373 15.06217
2004-03-18 07:55:15 51°11.115 2°44.213 6.924403 3.36727 33.121143 14.792494
2004-03-18 07:55:20 51°11.107 2°44.183 6.919435 3.38444 33.310262 15.702648
2004-03-18 07:55:25 51°11.1 2°44.153 6.921599 3.363057 33.07761 15.500392
2004-03-18 07:55:29 51°11.094 2°44.13 6.921599 3.363057 33.07761 15.500392
2004-03-18 07:55:35 51°11.086 2°44.094 6.917811 3.374012 33.197193 15.331845
2004-03-18 07:55:40 51°11.079 2°44.064 6.9246 3.378752 33.246493 15.331845
2004-03-18 07:55:45 51°11.072 2°44.034 6.924846 3.368218 33.133126 15.432973
2004-03-18 07:55:50 51°11.064 2°44.004 6.918106 3.392762 33.402009 15.331845
2004-03-18 07:55:55 51°11.057 2°43.975 6.923075 3.379384 33.257499 15.500392
2004-03-18 07:56:00 51°11.049 2°43.946 6.923075 3.379384 33.257499 15.500392
2004-03-18 07:56:05 51°11.041 2°43.917 6.931585 3.373906 33.196043 15.399264
2004-03-18 07:56:11 51°11.031 2°43.883 6.92583 3.391076 33.382767 15.432973
2004-03-18 07:56:15 51°11.025 2°43.859 6.92701 3.385388 33.321441 15.264426
2004-03-18 07:56:20 51°11.018 2°43.83 6.925338 3.368324 33.133458 15.466683
2004-03-18 07:56:25 51°11.011 2°43.8 6.928634 3.380437 33.262436 15.298136
2004-03-18 07:56:29 51°11.005 2°43.776 6.928634 3.380437 33.262436 15.298136
2004-03-18 07:56:35 51°10.998 2°43.74 6.927158 3.376645 33.221848 15.331845
2004-03-18 07:56:40 51°10.991 2°43.71 6.932274 3.37359 33.187677 15.534101
2004-03-18 07:56:45 51°10.984 2°43.68 6.921599 3.396448 33.437351 15.399264
2004-03-18 07:56:51 51°10.977 2°43.644 6.931437 3.381596 33.274268 15.399264
2004-03-18 07:56:55 51°10.971 2°43.62 6.92278 3.374328 33.196546 15.432973
2004-03-18 07:57:00 51°10.964 2°43.59 6.92278 3.374328 33.196546 15.432973
2004-03-18 07:57:05 51°10.958 2°43.56 6.924698 3.382544 33.285443 15.298136
2004-03-18 07:57:09 51°10.953 2°43.536 6.925387 3.374644 33.200816 15.770067
2004-03-18 07:57:15 51°10.945 2°43.5 6.926322 3.378646 33.245342 15.466683
2004-03-18 07:57:20 51°10.939 2°43.47 6.926863 3.382649 33.28988 15.095879
2004-03-18 07:57:25 51°10.932 2°43.44 6.933552 3.375592 33.212806 14.927332
2004-03-18 07:57:30 51°10.926 2°43.41 6.933552 3.375592 33.212806 14.927332
2004-03-18 07:57:35 51°10.919 2°43.38 6.924551 3.390655 33.377339 15.163298
2004-03-18 07:57:40 51°10.912 2°43.35 6.929765 3.393183 33.402491 15.399264
2004-03-18 07:57:45 51°10.906 2°43.32 6.930995 3.384967 33.311905 14.826204
2004-03-18 07:57:49 51°10.901 2°43.296 6.92765 3.380858 33.267037 14.556529
2004-03-18 07:57:55 51°10.893 2°43.26 6.933257 3.382017 33.280512 15.06217
2004-03-18 07:58:00 51°10.887 2°43.23 6.933257 3.382017 33.280512 15.06217
2004-03-18 07:58:05 51°10.88 2°43.2 6.927256 3.371484 33.164679 15.264426
2004-03-18 07:58:09 51°10.875 2°43.176 6.928339 3.39687 33.439479 16.545383
2004-03-18 07:58:15 51°10.868 2°43.14 6.932126 3.399608 33.469411 15.129589
2004-03-18 07:58:20 51°10.862 2°43.11 6.932962 3.387495 33.336229 14.286853
2004-03-18 07:58:25 51°10.855 2°43.08 6.924354 3.399819 33.470887 15.466683
2004-03-18 07:58:30 51°10.848 2°43.05 6.924354 3.399819 33.470887 15.466683
2004-03-18 07:58:35 51°10.842 2°43.02 6.926568 3.363057 33.071896 15.534101
2004-03-18 07:58:40 51°10.836 2°42.99 6.928732 3.393077 33.398042 15.163298
2004-03-18 07:58:45 51°10.829 2°42.96 6.930503 3.39234 33.389986 14.994751
2004-03-18 07:58:49 51°10.824 2°42.936 6.932323 3.388337 33.348726 14.961042
2004-03-18 07:58:55 51°10.816 2°42.9 6.93488 3.386441 33.326368 15.432973
2004-03-18 07:59:00 51°10.809 2°42.87 6.93488 3.386441 33.326368 15.432973
2004-03-18 07:59:05 51°10.803 2°42.84 6.931979 3.371168 33.159593 15.63523
2004-03-18 07:59:09 51°10.798 2°42.817 6.933602 3.383176 33.289059 15.534101
2004-03-18 07:59:15 51°10.79 2°42.781 6.93129 3.393604 33.403797 15.02846
2004-03-18 07:59:21 51°10.782 2°42.745 6.926469 3.391076 33.375352 15.298136
2004-03-18 07:59:25 51°10.777 2°42.72 6.932077 3.343676 32.858083 14.826204
2004-03-18 07:59:29 51°10.772 2°42.696 6.932077 3.343676 32.858083 14.826204
2004-03-18 07:59:35 51°10.764 2°42.661 6.922534 3.401505 33.487655 15.432973
2004-03-18 07:59:40 51°10.758 2°42.631 6.92519 3.406245 33.540298 15.197007
2004-03-18 07:59:45 51°10.751 2°42.601 6.929618 3.406772 33.546884 14.556529
2004-03-18 07:59:51 51°10.743 2°42.565 6.925879 3.406561 33.545408 15.095879
2004-03-18 07:59:55 51°10.738 2°42.542 6.925682 3.406982 33.552499 15.399264
2004-03-18 07:59:59 51°10.732 2°42.518 6.925682 3.406982 33.552499 15.399264
2004-03-18 08:00:05 51°10.724 2°42.482 6.922386 3.407298 33.557611 15.095879
2004-03-18 08:00:11 51°10.717 2°42.446 6.930355 3.401399 33.49229 14.758785
2004-03-18 08:00:15 51°10.712 2°42.422 6.929322 3.407193 33.555631 14.691366
2004-03-18 08:00:20 51°10.706 2°42.392 6.923518 3.40793 33.562865 14.725076
2004-03-18 08:00:25 51°10.699 2°42.362 6.917467 3.407404 33.557935 14.758785
2004-03-18 08:00:29 51°10.694 2°42.338 6.917467 3.407404 33.557935 14.758785
2004-03-18 08:00:35 51°10.687 2°42.303 6.912104 3.40793 33.564522 15.06217
2004-03-18 08:00:40 51°10.68 2°42.273 6.915892 3.407193 33.558116 14.387982
2004-03-18 08:00:45 51°10.674 2°42.243 6.917221 3.408457 33.571939 15.095879
2004-03-18 08:00:49 51°10.668 2°42.219 6.918844 3.407614 33.566038 15.298136
2004-03-18 08:00:55 51°10.661 2°42.184 6.918697 3.409194 33.586636 15.534101
2004-03-18 08:01:00 51°10.654 2°42.154 6.918697 3.409194 33.586636 15.534101
2004-03-18 08:01:05 51°10.648 2°42.124 6.907626 3.408246 33.577095 16.646512
2004-03-18 08:01:09 51°10.643 2°42.101 6.923715 3.407193 33.563916 15.06217
2004-03-18 08:01:15 51°10.635 2°42.065 6.914908 3.40793 33.571981 15.298136
2004-03-18 08:01:21 51°10.628 2°42.029 6.919976 3.408984 33.585161 15.736358
2004-03-18 08:01:25 51°10.623 2°42.006 6.91422 3.408562 33.58304 15.197007
2004-03-18 08:01:29 51°10.618 2°41.982 6.91422 3.408562 33.58304 15.197007
2004-03-18 08:01:36 51°10.608 2°41.94 6.912055 3.408562 33.578894 15.06217
2004-03-18 08:01:40 51°10.603 2°41.917 6.913383 3.408562 33.581381 15.500392
2004-03-18 08:01:45 51°10.597 2°41.887 6.904871 3.408352 33.578248 16.241999
2004-03-18 08:01:49 51°10.592 2°41.863 6.911464 3.408141 33.575114 16.006033
2004-03-18 08:01:56 51°10.583 2°41.822 6.907676 3.408668 33.582534 15.60152
2004-03-18 08:02:00 51°10.578 2°41.798 6.907676 3.408668 33.582534 15.60152
2004-03-18 08:02:05 51°10.572 2°41.768 6.907676 3.407298 33.572528 16.511674
2004-03-18 08:02:09 51°10.567 2°41.744 6.90989 3.408668 33.588339 14.994751
2004-03-18 08:02:15 51°10.559 2°41.709 6.903838 3.407404 33.57451 15.63523
2004-03-18 08:02:20 51°10.553 2°41.679 6.902657 3.408247 33.585388 15.500392
2004-03-18 08:02:25 51°10.547 2°41.649 6.899359 3.408247 33.585388 16.275708
2004-03-18 08:02:29 51°10.542 2°41.625 6.899359 3.408247 33.585388 16.275708
2004-03-18 08:02:35 51°10.535 2°41.59 6.901869 3.408563 33.589676 15.365554
2004-03-18 08:02:40 51°10.528 2°41.56 6.907626 3.407615 33.580962 16.107161
2004-03-18 08:02:45 51°10.521 2°41.53 6.905166 3.408563 33.591335 15.095879
2004-03-18 08:02:50 51°10.515 2°41.5 6.907577 3.406982 33.574876 15.331845
2004-03-18 08:02:55 51°10.508 2°41.471 6.899999 3.408457 33.590182 15.702648
2004-03-18 08:02:59 51°10.503 2°41.447 6.899999 3.408457 33.590182 15.702648
2004-03-18 08:03:05 51°10.496 2°41.412 6.908611 3.408457 33.588523 14.758785
2004-03-18 08:03:09 51°10.491 2°41.388 6.90241 3.407509 33.57898 15.365554
2004-03-18 08:03:15 51°10.483 2°41.352 6.899261 3.407825 33.580778 15.702648
2004-03-18 08:03:20 51°10.477 2°41.322 6.89931 3.408352 33.589859 15.500392
2004-03-18 08:03:25 51°10.471 2°41.293 6.897932 3.408352 33.589859 15.534101
2004-03-18 08:03:31 51°10.463 2°41.257 6.897932 3.408352 33.589859 15.534101
2004-03-18 08:03:35 51°10.458 2°41.234 6.893109 3.408563 33.593824 15.129589
2004-03-18 08:03:40 51°10.451 2°41.204 6.896259 3.408563 33.595484 15.331845
2004-03-18 08:03:45 51°10.445 2°41.175 6.892469 3.408563 33.597144 14.994751
2004-03-18 08:03:51 51°10.437 2°41.139 6.887055 3.408879 33.599772 14.792494
2004-03-18 08:03:55 51°10.432 2°41.116 6.880213 3.408036 33.59387 15.972324
2004-03-18 08:04:00 51°10.426 2°41.086 6.880213 3.408036 33.59387 15.972324
2004-03-18 08:04:05 51°10.419 2°41.057 6.88425 3.408879 33.605584 15.06217
2004-03-18 08:04:11 51°10.411 2°41.022 6.880262 3.409195 33.609043 14.725076
2004-03-18 08:04:15 51°10.406 2°40.998 6.871155 3.409089 33.610381 14.826204
2004-03-18 08:04:20 51°10.4 2°40.969 6.872484 3.409195 33.615688 15.702648
2004-03-18 08:04:25 51°10.394 2°40.939 6.868151 3.4093 33.619334 15.500392
2004-03-18 08:04:31 51°10.386 2°40.904 6.868151 3.4093 33.619334 15.500392
2004-03-18 08:04:35 51°10.382 2°40.88 6.863326 3.40909 33.617858 15.63523
2004-03-18 08:04:39 51°10.377 2°40.857 6.858894 3.40909 33.622845 15.365554
2004-03-18 08:04:45 51°10.369 2°40.821 6.858057 3.408774 33.622709 15.770067
2004-03-18 08:04:49 51°10.364 2°40.798 6.861947 3.408774 33.626035 15.129589
2004-03-18 08:04:55 51°10.357 2°40.763 6.851655 3.408563 33.627885 14.792494
2004-03-18 08:05:00 51°10.35 2°40.733 6.851655 3.408563 33.627885 14.792494
2004-03-18 08:05:05 51°10.344 2°40.704 6.853822 3.408352 33.628072 15.500392
2004-03-18 08:05:09 51°10.339 2°40.68 6.846829 3.408352 33.629735 16.241999
2004-03-18 08:05:15 51°10.332 2°40.646 6.847469 3.408142 33.627427 15.399264
2004-03-18 08:05:20 51°10.325 2°40.617 6.843233 3.407931 33.627614 16.275708
2004-03-18 08:05:25 51°10.319 2°40.587 6.843923 3.40772 33.628634 15.095879
2004-03-18 08:05:29 51°10.314 2°40.564 6.843923 3.40772 33.628634 15.095879
2004-03-18 08:05:35 51°10.306 2°40.529 6.851113 3.406983 33.625545 15.163298
2004-03-18 08:05:41 51°10.299 2°40.494 6.851852 3.406351 33.620283 16.107161
2004-03-18 08:05:45 51°10.294 2°40.471 6.8553 3.405614 33.614698 14.893623
2004-03-18 08:05:51 51°10.287 2°40.436 6.854413 3.404876 33.607449 15.432973
2004-03-18 08:05:55 51°10.281 2°40.413 6.855743 3.404244 33.59886 15.129589
2004-03-18 08:06:00 51°10.275 2°40.384 6.855743 3.404244 33.59886 15.129589
2004-03-18 08:06:05 51°10.269 2°40.355 6.862587 3.404034 33.594889 15.567811
2004-03-18 08:06:11 51°10.262 2°40.321 6.852443 3.403928 33.58958 16.781349
2004-03-18 08:06:15 51°10.257 2°40.298 6.85003 3.404139 33.590226 15.500392
2004-03-18 08:06:20 51°10.251 2°40.269 6.852591 3.404139 33.589395 14.927332
2004-03-18 08:06:25 51°10.245 2°40.24 6.84934 3.404033 33.586579 15.567811
2004-03-18 08:06:29 51°10.24 2°40.216 6.84934 3.404033 33.586579 15.567811
2004-03-18 08:06:36 51°10.231 2°40.176 6.85067 3.403928 33.587087 15.837486
2004-03-18 08:06:40 51°10.226 2°40.152 6.843923 3.403717 33.586441 15.837486
2004-03-18 08:06:45 51°10.219 2°40.123 6.84673 3.403507 33.585794 16.343127
2004-03-18 08:06:51 51°10.212 2°40.089 6.836928 3.403191 33.583994 16.140871
2004-03-18 08:06:55 51°10.207 2°40.065 6.838751 3.403296 33.585979 15.06217
2004-03-18 08:07:01 51°10.2 2°40.031 6.838751 3.403296 33.585979 15.06217
2004-03-18 08:07:05 51°10.195 2°40.008 6.840228 3.40298 33.584178 15.163298
2004-03-18 08:07:09 51°10.19 2°39.984 6.836337 3.402875 33.583024 15.432973
2004-03-18 08:07:15 51°10.183 2°39.949 6.831953 3.40277 33.586857 14.859913
2004-03-18 08:07:21 51°10.175 2°39.914 6.832642 3.402348 33.584733 16.71393
2004-03-18 08:07:25 51°10.17 2°39.89 6.827913 3.402243 33.586072 14.691366
2004-03-18 08:07:31 51°10.163 2°39.855 6.827913 3.402243 33.586072 14.691366
2004-03-18 08:07:35 51°10.158 2°39.832 6.831361 3.402243 33.586903 15.500392
2004-03-18 08:07:41 51°10.151 2°39.797 6.840278 3.402032 33.586257 15.466683
2004-03-18 08:07:45 51°10.146 2°39.774 6.826484 3.401927 33.585934 15.500392
2004-03-18 08:07:50 51°10.14 2°39.745 6.829933 3.401716 33.587782 15.803777
2004-03-18 08:07:55 51°10.134 2°39.716 6.823577 3.401716 33.586119 15.399264
2004-03-18 08:07:59 51°10.129 2°39.692 6.823577 3.401716 33.586119 15.399264
2004-03-18 08:08:05 51°10.122 2°39.657 6.821902 3.401506 33.582147 15.871195
2004-03-18 08:08:10 51°10.116 2°39.628 6.826977 3.401611 33.585796 15.230717
2004-03-18 08:08:15 51°10.11 2°39.599 6.822345 3.401716 33.588614 15.331845
2004-03-18 08:08:19 51°10.106 2°39.576 6.823085 3.401506 33.587967 15.837486
2004-03-18 08:08:25 51°10.098 2°39.541 6.823429 3.4014 33.589307 15.466683
2004-03-18 08:08:29 51°10.093 2°39.518 6.823429 3.4014 33.589307 15.466683
2004-03-18 08:08:35 51°10.086 2°39.483 6.819931 3.401506 33.589631 15.534101
2004-03-18 08:08:41 51°10.078 2°39.448 6.821557 3.401506 33.591294 17.253281
2004-03-18 08:08:45 51°10.074 2°39.425 6.815201 3.401611 33.593281 16.343127
2004-03-18 08:08:50 51°10.067 2°39.396 6.817418 3.401611 33.594945 16.17458
2004-03-18 08:08:55 51°10.061 2°39.366 6.815102 3.401506 33.59379 15.432973
2004-03-18 08:09:00 51°10.055 2°39.337 6.815102 3.401506 33.59379 15.432973
2004-03-18 08:09:05 51°10.049 2°39.308 6.816088 3.4014 33.593467 16.039742
2004-03-18 08:09:11 51°10.042 2°39.273 6.808942 3.401611 33.599105 17.185862
2004-03-18 08:09:15 51°10.037 2°39.249 6.809189 3.401611 33.599105 17.253281
2004-03-18 08:09:19 51°10.032 2°39.226 6.807809 3.401611 33.599937 15.331845
2004-03-18 08:09:25 51°10.025 2°39.191 6.808449 3.401506 33.599614 16.107161
2004-03-18 08:09:31 51°10.018 2°39.156 6.808449 3.401506 33.599614 16.107161
2004-03-18 08:09:36 51°10.011 2°39.127 6.808252 3.401611 33.602434 16.511674
2004-03-18 08:09:40 51°10.007 2°39.104 6.803324 3.4014 33.601788 15.904905
2004-03-18 08:09:45 51°10 2°39.074 6.806232 3.401506 33.605441 15.534101
2004-03-18 08:09:50 51°9.994 2°39.045 6.803866 3.401506 33.604608 16.444255
2004-03-18 08:09:55 51°9.988 2°39.016 6.80426 3.401506 33.604608 17.017315
2004-03-18 08:10:00 51°9.982 2°38.987 6.80426 3.401506 33.604608 17.017315
2004-03-18 08:10:05 51°9.976 2°38.958 6.809139 3.401611 33.608262 16.477965
2004-03-18 08:10:10 51°9.97 2°38.928 6.801993 3.401401 33.606783 15.837486
2004-03-18 08:10:15 51°9.963 2°38.899 6.805936 3.401611 33.609927 16.275708
2004-03-18 08:10:19 51°9.958 2°38.875 6.806084 3.401717 33.611082 16.680221
2004-03-18 08:10:25 51°9.951 2°38.84 6.800367 3.401822 33.611405 16.511674
2004-03-18 08:10:29 51°9.946 2°38.817 6.800367 3.401822 33.611405 16.511674
2004-03-18 08:10:35 51°9.939 2°38.781 6.799184 3.401822 33.613071 16.039742
2004-03-18 08:10:40 51°9.933 2°38.752 6.801697 3.401822 33.613904 15.702648
2004-03-18 08:10:45 51°9.926 2°38.723 6.799085 3.401822 33.613071 16.073452
2004-03-18 08:10:51 51°9.919 2°38.688 6.803767 3.401927 33.615892 16.545383
2004-03-18 08:10:55 51°9.914 2°38.664 6.80288 3.402138 33.619037 16.208289
2004-03-18 08:11:00 51°9.908 2°38.635 6.80288 3.402138 33.619037 16.208289
2004-03-18 08:11:05 51°9.902 2°38.605 6.802782 3.402243 33.620192 16.545383
2004-03-18 08:11:09 51°9.897 2°38.582 6.800268 3.402138 33.61987 16.208289
2004-03-18 08:11:15 51°9.889 2°38.547 6.801796 3.402349 33.620515 15.60152
2004-03-18 08:11:21 51°9.882 2°38.512 6.800465 3.402454 33.622504 16.039742
2004-03-18 08:11:25 51°9.877 2°38.488 6.798789 3.402454 33.623337 16.477965
2004-03-18 08:11:29 51°9.872 2°38.465 6.798789 3.402454 33.623337 16.477965
2004-03-18 08:11:35 51°9.865 2°38.43 6.802092 3.402559 33.626159 16.343127
2004-03-18 08:11:40 51°9.859 2°38.4 6.802634 3.402665 33.625648 16.646512
2004-03-18 08:11:45 51°9.853 2°38.371 6.801747 3.40277 33.627637 16.309418
2004-03-18 08:11:50 51°9.847 2°38.342 6.804605 3.402981 33.629949 16.275708
2004-03-18 08:11:55 51°9.841 2°38.312 6.807562 3.403297 33.631749 16.646512
2004-03-18 08:11:59 51°9.836 2°38.289 6.807562 3.403297 33.631749 16.646512
2004-03-18 08:12:05 51°9.828 2°38.254 6.808942 3.403402 33.632905 17.455537
2004-03-18 08:12:09 51°9.823 2°38.23 6.810815 3.403507 33.633227 15.837486
2004-03-18 08:12:15 51°9.817 2°38.195 6.81047 3.403718 33.634705 16.545383
2004-03-18 08:12:20 51°9.811 2°38.166 6.818207 3.403929 33.63535 16.680221
2004-03-18 08:12:25 51°9.805 2°38.136 6.817073 3.404139 33.635994 17.017315
2004-03-18 08:12:31 51°9.798 2°38.102 6.817073 3.404139 33.635994 17.017315
2004-03-18 08:12:35 51°9.793 2°38.078 6.822592 3.404666 33.639272 16.208289
2004-03-18 08:12:41 51°9.786 2°38.043 6.824218 3.404771 33.640428 17.017315
2004-03-18 08:12:45 51°9.781 2°38.019 6.82407 3.404982 33.639405 16.410546
2004-03-18 08:12:51 51°9.773 2°37.984 6.827568 3.405298 33.639539 17.084734
2004-03-18 08:12:55 51°9.768 2°37.961 6.831657 3.405614 33.641338 16.275708
2004-03-18 08:13:00 51°9.762 2°37.932 6.831657 3.405614 33.641338 16.275708
2004-03-18 08:13:05 51°9.756 2°37.903 6.840918 3.40593 33.643138 16.680221
2004-03-18 08:13:09 51°9.751 2°37.88 6.84407 3.406351 33.646092 16.545383
2004-03-18 08:13:16 51°9.743 2°37.839 6.846533 3.406562 33.646736 17.28699
2004-03-18 08:13:19 51°9.739 2°37.821 6.850227 3.407089 33.649179 16.477965
2004-03-18 08:13:25 51°9.732 2°37.786 6.854906 3.40751 33.647968 16.208289
2004-03-18 08:13:31 51°9.725 2°37.751 6.854906 3.40751 33.647968 16.208289
2004-03-18 08:13:35 51°9.72 2°37.728 6.861209 3.408142 33.650732 17.185862
2004-03-18 08:13:40 51°9.714 2°37.699 6.861406 3.408669 33.652342 16.983606
2004-03-18 08:13:45 51°9.708 2°37.67 6.864065 3.40909 33.654462 18.534238
2004-03-18 08:13:51 51°9.7 2°37.635 6.869776 3.409511 33.652418 16.680221
2004-03-18 08:13:55 51°9.695 2°37.612 6.874109 3.410249 33.657168 16.410546
2004-03-18 08:14:00 51°9.689 2°37.583 6.874109 3.410249 33.657168 16.410546
2004-03-18 08:14:05 51°9.683 2°37.554 6.873518 3.410249 33.65467 16.511674
2004-03-18 08:14:11 51°9.676 2°37.518 6.879918 3.410565 33.655636 18.163435
2004-03-18 08:14:15 51°9.671 2°37.495 6.880361 3.410986 33.65609 17.28699
2004-03-18 08:14:20 51°9.665 2°37.466 6.883117 3.411407 33.656545 16.983606
2004-03-18 08:14:25 51°9.66 2°37.436 6.884446 3.411618 33.657188 17.185862
2004-03-18 08:14:30 51°9.654 2°37.407 6.884446 3.411618 33.657188 17.185862
2004-03-18 08:14:35 51°9.648 2°37.378 6.885529 3.411934 33.658153 17.691503
2004-03-18 08:14:40 51°9.641 2°37.349 6.8874 3.412144 33.657132 17.354409
2004-03-18 08:14:45 51°9.635 2°37.32 6.893847 3.412355 33.656943 17.590375
2004-03-18 08:14:51 51°9.627 2°37.286 6.897686 3.412671 33.657908 17.758922
2004-03-18 08:14:55 51°9.621 2°37.263 6.899999 3.412776 33.657398 16.848768
2004-03-18 08:15:00 51°9.614 2°37.235 6.899999 3.412776 33.657398 16.848768
2004-03-18 08:15:05 51°9.607 2°37.206 6.902214 3.412987 33.658041 17.657794
2004-03-18 08:15:09 51°9.601 2°37.184 6.905215 3.413198 33.657852 18.803913
2004-03-18 08:15:15 51°9.592 2°37.149 6.909742 3.413408 33.656832 18.365691
2004-03-18 08:15:20 51°9.585 2°37.121 6.91176 3.413724 33.656965 17.185862
2004-03-18 08:15:25 51°9.578 2°37.092 6.917516 3.414251 33.660236 17.792631
2004-03-18 08:15:29 51°9.573 2°37.069 6.917516 3.414251 33.660236 17.792631
2004-03-18 08:15:35 51°9.564 2°37.035 6.918697 3.414356 33.658063 17.017315
2004-03-18 08:15:40 51°9.557 2°37.007 6.918992 3.414672 33.658196 17.556665
2004-03-18 08:15:45 51°9.549 2°36.978 6.9246 3.414883 33.658008 17.118443
2004-03-18 08:15:51 51°9.54 2°36.944 6.926519 3.41541 33.658784 16.444255
2004-03-18 08:15:55 51°9.534 2°36.922 6.926076 3.415515 33.658274 17.152153
2004-03-18 08:16:00 51°9.527 2°36.893 6.926076 3.415515 33.658274 17.152153
2004-03-18 08:16:05 51°9.52 2°36.865 6.926076 3.415726 33.658918 18.466819
2004-03-18 08:16:10 51°9.513 2°36.836 6.928535 3.416042 33.659051 17.758922
2004-03-18 08:16:15 51°9.506 2°36.808 6.929126 3.415726 33.653101 17.725212
2004-03-18 08:16:20 51°9.499 2°36.779 6.932913 3.416042 33.654896 17.556665
2004-03-18 08:16:25 51°9.492 2°36.751 6.932569 3.416042 33.653235 18.669076
2004-03-18 08:16:31 51°9.484 2°36.717 6.932569 3.416042 33.653235 18.669076
2004-03-18 08:16:35 51°9.478 2°36.694 6.934585 3.416042 33.651573 18.736494
2004-03-18 08:16:39 51°9.472 2°36.671 6.935126 3.415936 33.64959 18.331982
2004-03-18 08:16:45 51°9.464 2°36.637 6.935618 3.416147 33.649403 17.455537
2004-03-18 08:16:49 51°9.458 2°36.614 6.93552 3.416041 33.647421 17.556665
2004-03-18 08:16:56 51°9.448 2°36.575 6.940832 3.416147 33.647742 17.927469
2004-03-18 08:16:59 51°9.443 2°36.557 6.940832 3.416147 33.647742 17.927469
2004-03-18 08:17:05 51°9.435 2°36.523 6.941766 3.416147 33.646912 17.927469
2004-03-18 08:17:10 51°9.428 2°36.495 6.939209 3.416252 33.646403 18.466819
2004-03-18 08:17:15 51°9.421 2°36.466 6.941422 3.416357 33.648386 17.691503
2004-03-18 08:17:19 51°9.416 2°36.444 6.942307 3.416357 33.645895 18.770204
2004-03-18 08:17:25 51°9.407 2°36.41 6.943487 3.416463 33.645386 18.871332
2004-03-18 08:17:31 51°9.399 2°36.375 6.943487 3.416463 33.645386 18.871332
2004-03-18 08:17:35 51°9.393 2°36.353 6.944225 3.416673 33.64686 18.466819
2004-03-18 08:17:40 51°9.386 2°36.324 6.94393 3.416463 33.643726 19.511811
2004-03-18 08:17:45 51°9.379 2°36.296 6.942946 3.416568 33.644047 18.230853
2004-03-18 08:17:50 51°9.372 2°36.267 6.941323 3.416779 33.646351 14.017178
2004-03-18 08:17:55 51°9.365 2°36.239 6.941028 3.416673 33.644369 13.814922
2004-03-18 08:18:00 51°9.358 2°36.21 6.941028 3.416673 33.644369 13.814922
2004-03-18 08:18:05 51°9.351 2°36.182 6.944126 3.416673 33.643539 15.298136
2004-03-18 08:18:09 51°9.346 2°36.159 6.944618 3.416463 33.642066 14.185725
2004-03-18 08:18:15 51°9.338 2°36.124 6.943586 3.416673 33.644369 11.08446
2004-03-18 08:18:20 51°9.332 2°36.096 6.945258 3.416779 33.644691 11.050751
2004-03-18 08:18:25 51°9.325 2°36.068 6.946389 3.416568 33.643217 10.949623
2004-03-18 08:18:30 51°9.318 2°36.039 6.946389 3.416568 33.643217 10.949623
2004-03-18 08:18:35 51°9.311 2°36.01 6.94811 3.416779 33.645521 11.219298
2004-03-18 08:18:41 51°9.303 2°35.976 6.948601 3.416568 33.640727 11.185589
2004-03-18 08:18:45 51°9.298 2°35.953 6.950372 3.416884 33.644183 11.219298
2004-03-18 08:18:51 51°9.29 2°35.919 6.953617 3.416884 33.643353 10.848494
2004-03-18 08:18:55 51°9.285 2°35.896 6.961533 3.416884 33.641693 11.08446
2004-03-18 08:19:01 51°9.277 2°35.862 6.961533 3.416884 33.641693 11.08446
2004-03-18 08:19:05 51°9.272 2°35.84 6.962369 3.416989 33.642014 11.185589
2004-03-18 08:19:10 51°9.265 2°35.811 6.966744 3.416673 33.63607 11.151879
2004-03-18 08:19:15 51°9.259 2°35.783 6.969005 3.416252 33.630635 10.54511
2004-03-18 08:19:21 51°9.25 2°35.749 6.975002 3.415831 33.621053 10.781076
2004-03-18 08:19:25 51°9.245 2°35.726 6.979918 3.415831 33.617737 10.443982
2004-03-18 08:19:29 51°9.24 2°35.704 6.979918 3.415831 33.617737 10.443982
2004-03-18 08:19:36 51°9.23 2°35.664 6.982228 3.415936 33.615573 10.309144
2004-03-18 08:19:39 51°9.226 2°35.647 6.985324 3.41562 33.609633 10.747366
2004-03-18 08:19:45 51°9.218 2°35.613 6.992499 3.414988 33.598586 10.376563
2004-03-18 08:19:50 51°9.211 2°35.585 6.994022 3.414461 33.588693 10.309144
2004-03-18 08:19:55 51°9.204 2°35.556 6.9981 3.414672 33.586027 10.208016
2004-03-18 08:20:00 51°9.198 2°35.528 6.9981 3.414672 33.586027 10.208016
2004-03-18 08:20:05 51°9.191 2°35.5 6.998788 3.414882 33.585017 10.241725
2004-03-18 08:20:10 51°9.184 2°35.472 7.002817 3.414882 33.581708 10.410272
2004-03-18 08:20:15 51°9.178 2°35.443 7.001835 3.41425 33.570671 10.342853
2004-03-18 08:20:20 51°9.171 2°35.415 7.005126 3.413934 33.563913 10.275435
2004-03-18 08:20:25 51°9.165 2°35.387 7.005912 3.413618 33.557984 9.904631
2004-03-18 08:20:31 51°9.156 2°35.353 7.005912 3.413618 33.557984 9.904631
2004-03-18 08:20:35 51°9.151 2°35.33 7.005667 3.413723 33.556654 9.769794
2004-03-18 08:20:41 51°9.143 2°35.296 7.006306 3.413618 33.554678 9.870922
2004-03-18 08:20:45 51°9.137 2°35.274 7.00208 3.413723 33.554175 10.039469
2004-03-18 08:20:51 51°9.129 2°35.24 7.001048 3.413618 33.553026 10.208016
2004-03-18 08:20:55 51°9.123 2°35.217 7.001392 3.41267 33.543505 9.870922
2004-03-18 08:21:00 51°9.116 2°35.189 7.001392 3.41267 33.543505 9.870922
2004-03-18 08:21:05 51°9.11 2°35.161 7.001098 3.412354 33.540882 9.230443
2004-03-18 08:21:09 51°9.104 2°35.138 7.001491 3.412143 33.540235 9.230443
2004-03-18 08:21:15 51°9.096 2°35.104 7.003849 3.412354 33.54336 9.736084
2004-03-18 08:21:21 51°9.088 2°35.07 7.003947 3.41267 33.548462 9.365281
2004-03-18 08:21:25 51°9.082 2°35.047 7.004291 3.412986 33.552738 10.241725
2004-03-18 08:21:29 51°9.077 2°35.025 7.004291 3.412986 33.552738 10.241725
2004-03-18 08:21:35 51°9.069 2°34.99 7.004782 3.413197 33.554211 9.837212
2004-03-18 08:21:41 51°9.061 2°34.956 7.006404 3.413407 33.555684 9.837212
2004-03-18 08:21:45 51°9.056 2°34.934 7.009351 3.413513 33.556834 9.668665
2004-03-18 08:21:51 51°9.048 2°34.899 7.009499 3.413934 33.560607 9.736084
2004-03-18 08:21:55 51°9.043 2°34.877 7.010629 3.414355 33.563553 9.533828
2004-03-18 08:22:00 51°9.036 2°34.848 7.010629 3.414355 33.563553 9.533828
2004-03-18 08:22:05 51°9.03 2°34.82 7.011808 3.414461 33.564703 9.702375
2004-03-18 08:22:09 51°9.024 2°34.797 7.012839 3.414461 33.563876 10.174306
2004-03-18 08:22:15 51°9.016 2°34.763 7.013429 3.414671 33.562869 9.938341
2004-03-18 08:22:20 51°9.01 2°34.735 7.016278 3.414882 33.564342 9.904631
2004-03-18 08:22:25 51°9.003 2°34.707 7.016917 3.414671 33.562043 9.870922
2004-03-18 08:22:31 51°8.995 2°34.673 7.016917 3.414671 33.562043 9.870922
2004-03-18 08:22:35 51°8.989 2°34.65 7.018685 3.414461 33.558917 10.106888
2004-03-18 08:22:39 51°8.985 2°34.629 7.01785 3.414355 33.556115 9.702375
2004-03-18 08:22:45 51°8.978 2°34.601 7.021632 3.414145 33.55299 9.736084
2004-03-18 08:22:49 51°8.973 2°34.582 7.022025 3.414039 33.551015 9.904631
2004-03-18 08:22:56 51°8.966 2°34.553 7.025267 3.413934 33.547387 9.634956
2004-03-18 08:22:59 51°8.963 2°34.541 7.025267 3.413934 33.547387 9.634956
2004-03-18 08:23:05 51°8.957 2°34.519 7.027231 3.413828 33.545412 9.4327
2004-03-18 08:23:11 51°8.951 2°34.497 7.027035 3.413407 33.539164 9.634956
2004-03-18 08:23:15 51°8.947 2°34.484 7.029638 3.413302 33.536363 9.533828
2004-03-18 08:23:20 51°8.943 2°34.467 7.033223 3.412775 33.529792 9.264153
2004-03-18 08:23:25 51°8.94 2°34.451 7.036464 3.412459 33.524695 9.297862
2004-03-18 08:23:29 51°8.937 2°34.438 7.036464 3.412459 33.524695 9.297862
2004-03-18 08:23:36 51°8.934 2°34.417 7.037642 3.412143 33.518773 9.533828
2004-03-18 08:23:41 51°8.932 2°34.401 7.039607 3.411722 33.513352 9.736084
2004-03-18 08:23:45 51°8.931 2°34.39 7.040834 3.411405 33.507432 9.129315
2004-03-18 08:23:49 51°8.931 2°34.378 7.042749 3.411195 33.501837 8.893349
2004-03-18 08:23:55 51°8.93 2°34.361 7.041423 3.410563 33.492473 9.163024
2004-03-18 08:24:00 51°8.931 2°34.347 7.041423 3.410563 33.492473 9.163024
2004-03-18 08:24:05 51°8.931 2°34.335 7.042209 3.410668 33.491149 8.758512
2004-03-18 08:24:09 51°8.931 2°34.324 7.043731 3.410352 33.486056 9.028187
2004-03-18 08:24:15 51°8.932 2°34.31 7.045351 3.410563 33.486705 8.994477
2004-03-18 08:24:20 51°8.933 2°34.298 7.047954 3.410563 33.486705 8.623674
2004-03-18 08:24:25 51°8.935 2°34.288 7.047119 3.410352 33.484409 9.264153
2004-03-18 08:24:30 51°8.936 2°34.278 7.047119 3.410352 33.484409 9.264153
2004-03-18 08:24:35 51°8.938 2°34.269 7.048936 3.410563 33.485058 8.792221
2004-03-18 08:24:40 51°8.939 2°34.26 7.04761 3.410141 33.480465 8.82593
2004-03-18 08:24:45 51°8.939 2°34.253 7.046775 3.410247 33.478319 8.893349
2004-03-18 08:24:51 51°8.94 2°34.246 7.045351 3.410352 33.478644 8.85964
2004-03-18 08:24:55 51°8.94 2°34.243 7.045941 3.410352 33.478644 8.589965
2004-03-18 08:25:00 51°8.94 2°34.239 7.045941 3.410352 33.478644 8.589965
2004-03-18 08:25:05 51°8.941 2°34.237 7.045892 3.410457 33.480616 8.657383
2004-03-18 08:25:10 51°8.941 2°34.237 7.045351 3.410352 33.479468 8.927059
2004-03-18 08:25:15 51°8.941 2°34.237 7.046039 3.410247 33.479143 8.589965
2004-03-18 08:25:20 51°8.942 2°34.237 7.045793 3.410247 33.479143 8.994477
2004-03-18 08:25:25 51°8.942 2°34.237 7.049819 3.410352 33.481114 8.556255
2004-03-18 08:25:31 51°8.942 2°34.237 7.049819 3.410352 33.481114 8.556255
2004-03-18 08:25:35 51°8.943 2°34.237 7.047512 3.410141 33.478818 8.353999
2004-03-18 08:25:40 51°8.943 2°34.237 7.045646 3.410352 33.481114 8.758512
2004-03-18 08:25:45 51°8.943 2°34.237 7.042258 3.410141 33.477995 9.061896
2004-03-18 08:25:51 51°8.943 2°34.237 7.0427 3.410352 33.479468 8.724802
2004-03-18 08:25:56 51°8.944 2°34.237 7.042258 3.410352 33.479468 8.85964
2004-03-18 08:26:00 51°8.944 2°34.237 7.042258 3.410352 33.479468 8.85964
2004-03-18 08:26:05 51°8.944 2°34.237 7.040736 3.410563 33.483411 8.724802
2004-03-18 08:26:09 51°8.944 2°34.237 7.039656 3.410984 33.489651 8.691093
2004-03-18 08:26:16 51°8.945 2°34.237 7.038968 3.411089 33.490799 8.82593
2004-03-18 08:26:20 51°8.945 2°34.237 7.035383 3.411405 33.495068 8.792221
2004-03-18 08:26:25 51°8.945 2°34.237 7.034107 3.411511 33.497865 8.657383
2004-03-18 08:26:29 51°8.945 2°34.236 7.034107 3.411511 33.497865 8.657383
2004-03-18 08:26:35 51°8.946 2°34.236 7.032535 3.411616 33.499837 8.927059
2004-03-18 08:26:40 51°8.946 2°34.237 7.031013 3.412037 33.505255 8.792221
2004-03-18 08:26:45 51°8.946 2°34.237 7.029981 3.412248 33.508376 9.061896
2004-03-18 08:26:51 51°8.946 2°34.236 7.029785 3.412248 33.511674 8.82593
2004-03-18 08:26:55 51°8.946 2°34.236 7.030473 3.412353 33.514472 9.061896
2004-03-18 08:26:59 51°8.946 2°34.236 7.030473 3.412353 33.514472 9.061896
2004-03-18 08:27:05 51°8.947 2°34.236 7.031307 3.412459 33.516445 8.792221
2004-03-18 08:27:09 51°8.947 2°34.236 7.029834 3.412459 33.51892 8.994477
2004-03-18 08:27:15 51°8.947 2°34.236 7.031602 3.412354 33.516946 8.724802
2004-03-18 08:27:20 51°8.947 2°34.237 7.030129 3.412354 33.516946 8.994477
2004-03-18 08:27:25 51°8.947 2°34.236 7.028999 3.412248 33.515797 8.623674
2004-03-18 08:27:29 51°8.947 2°34.236 7.028999 3.412248 33.515797 8.623674
2004-03-18 08:27:36 51°8.947 2°34.236 7.029932 3.412459 33.518095 8.893349
2004-03-18 08:27:39 51°8.947 2°34.236 7.027477 3.412248 33.514973 8.724802
2004-03-18 08:27:45 51°8.948 2°34.236 7.027575 3.412459 33.51727 8.85964
2004-03-18 08:27:51 51°8.948 2°34.236 7.025365 3.412459 33.51892 8.893349
2004-03-18 08:27:55 51°8.948 2°34.236 7.023253 3.41288 33.52434 8.85964
2004-03-18 08:27:59 51°8.948 2°34.236 7.023253 3.41288 33.52434 8.85964
2004-03-18 08:28:05 51°8.948 2°34.236 7.021485 3.412986 33.526314 8.792221
2004-03-18 08:28:09 51°8.948 2°34.236 7.022418 3.413302 33.530586 8.927059
2004-03-18 08:28:15 51°8.949 2°34.236 7.022271 3.413512 33.533709 9.230443
2004-03-18 08:28:20 51°8.949 2°34.236 7.02006 3.413618 33.536509 9.028187
2004-03-18 08:28:25 51°8.949 2°34.236 7.020797 3.413723 33.540134 9.4327
2004-03-18 08:28:31 51°8.949 2°34.236 7.020797 3.413723 33.540134 9.4327
2004-03-18 08:28:35 51°8.949 2°34.236 7.020797 3.413512 33.537836 9.028187
2004-03-18 08:28:39 51°8.949 2°34.236 7.021534 3.413723 33.54096 9.264153
2004-03-18 08:28:45 51°8.949 2°34.236 7.022614 3.413618 33.540636 9.095606
2004-03-18 08:28:51 51°8.949 2°34.236 7.020551 3.413618 33.539811 9.39899
2004-03-18 08:28:55 51°8.949 2°34.236 7.023007 3.413723 33.541786 8.994477
2004-03-18 08:29:00 51°8.95 2°34.236 7.023007 3.413723 33.541786 8.994477
2004-03-18 08:29:05 51°8.95 2°34.236 7.024235 3.413723 33.54096 9.163024
2004-03-18 08:29:09 51°8.95 2°34.236 7.021976 3.413723 33.54096 8.994477
2004-03-18 08:29:16 51°8.95 2°34.236 7.019225 3.413618 33.539811 8.960768
2004-03-18 08:29:19 51°8.95 2°34.236 7.021927 3.413828 33.542109 9.129315
2004-03-18 08:29:25 51°8.95 2°34.236 7.022664 3.413618 33.538985 9.196734
2004-03-18 08:29:29 51°8.95 2°34.236 7.022664 3.413618 33.538985 9.196734
2004-03-18 08:29:35 51°8.95 2°34.236 7.021829 3.413618 33.539811 8.927059
2004-03-18 08:29:40 51°8.95 2°34.237 7.021829 3.413618 33.539811 8.994477
2004-03-18 08:29:45 51°8.951 2°34.237 7.024137 3.413512 33.538662 8.994477
2004-03-18 08:29:51 51°8.951 2°34.237 7.021632 3.413407 33.536687 9.028187
2004-03-18 08:29:55 51°8.951 2°34.237 7.021534 3.413618 33.539811 8.994477
2004-03-18 08:30:00 51°8.951 2°34.237 7.021534 3.413618 33.539811 8.994477
2004-03-18 08:30:05 51°8.951 2°34.237 7.020502 3.413512 33.537836 9.196734
2004-03-18 08:30:09 51°8.951 2°34.237 7.020994 3.413828 33.540458 9.095606
2004-03-18 08:30:15 51°8.951 2°34.237 7.019471 3.413934 33.542433 8.927059
2004-03-18 08:30:20 51°8.951 2°34.237 7.019471 3.414144 33.545557 8.927059
2004-03-18 08:30:25 51°8.951 2°34.237 7.017899 3.41425 33.546706 9.028187
2004-03-18 08:30:31 51°8.951 2°34.237 7.017899 3.41425 33.546706 9.028187
2004-03-18 08:30:35 51°8.951 2°34.237 7.018734 3.414355 33.547855 9.061896
2004-03-18 08:30:41 51°8.951 2°34.237 7.019667 3.41425 33.548358 9.095606
2004-03-18 08:30:45 51°8.951 2°34.237 7.017506 3.41446 33.551482 8.927059
2004-03-18 08:30:50 51°8.951 2°34.237 7.019176 3.414355 33.551159 8.994477
2004-03-18 08:30:55 51°8.951 2°34.237 7.016622 3.414355 33.550333 9.39899
2004-03-18 08:31:00 51°8.951 2°34.237 7.016622 3.414355 33.550333 9.39899
2004-03-18 08:31:05 51°8.951 2°34.237 7.020797 3.41425 33.549184 9.129315
2004-03-18 08:31:11 51°8.951 2°34.237 7.017064 3.414355 33.551159 9.028187
2004-03-18 08:31:15 51°8.951 2°34.237 7.019078 3.414355 33.550333 9.163024
2004-03-18 08:31:20 51°8.951 2°34.237 7.01785 3.414671 33.553781 8.994477
2004-03-18 08:31:25 51°8.951 2°34.237 7.01726 3.414566 33.551805 9.028187
2004-03-18 08:31:29 51°8.951 2°34.237 7.01726 3.414566 33.551805 9.028187
2004-03-18 08:31:35 51°8.951 2°34.237 7.016867 3.414566 33.552631 8.960768
2004-03-18 08:31:41 51°8.951 2°34.237 7.016867 3.414355 33.550333 9.196734
2004-03-18 08:31:45 51°8.951 2°34.237 7.01505 3.414777 33.555756 9.129315
2004-03-18 08:31:51 51°8.951 2°34.237 7.015246 3.414777 33.555756 9.163024
2004-03-18 08:31:55 51°8.951 2°34.237 7.01672 3.414566 33.554283 9.230443
2004-03-18 08:32:00 51°8.951 2°34.237 7.01672 3.414566 33.554283 9.230443
2004-03-18 08:32:05 51°8.951 2°34.237 7.022958 3.414566 33.554283 9.230443
2004-03-18 08:32:09 51°8.951 2°34.237 7.015394 3.414671 33.557085 9.061896
2004-03-18 08:32:16 51°8.951 2°34.237 7.02006 3.414777 33.558235 9.129315
2004-03-18 08:32:21 51°8.951 2°34.238 7.01952 3.414671 33.556259 8.893349
2004-03-18 08:32:25 51°8.951 2°34.238 7.019667 3.414987 33.558055 8.994477
2004-03-18 08:32:30 51°8.951 2°34.238 7.019667 3.414987 33.558055 8.994477
2004-03-18 08:32:35 51°8.951 2°34.238 7.015296 3.415093 33.56003 9.331571
2004-03-18 08:32:40 51°8.951 2°34.238 7.019864 3.415093 33.56003 8.960768
2004-03-18 08:32:45 51°8.951 2°34.238 7.017703 3.415409 33.561 9.230443
2004-03-18 08:32:49 51°8.951 2°34.238 7.019176 3.415409 33.560174 9.264153
2004-03-18 08:32:55 51°8.951 2°34.238 7.020699 3.415198 33.560354 9.601247
2004-03-18 08:33:01 51°8.951 2°34.238 7.020699 3.415198 33.560354 9.601247
2004-03-18 08:33:05 51°8.951 2°34.238 7.016917 3.415409 33.564305 9.331571
2004-03-18 08:33:10 51°8.951 2°34.239 7.018587 3.415409 33.563479 9.163024
2004-03-18 08:33:15 51°8.951 2°34.239 7.012004 3.415303 33.561503 9.129315
2004-03-18 08:33:19 51°8.951 2°34.239 7.013674 3.415409 33.562652 9.230443
2004-03-18 08:33:24 51°8.951 2°34.239 7.017015 3.415303 33.562329 8.960768
2004-03-18 08:33:31 51°8.951 2°34.239 7.017015 3.415303 33.562329 8.960768
2004-03-18 08:33:35 51°8.951 2°34.239 7.015541 3.415303 33.562329 9.028187
2004-03-18 08:33:40 51°8.951 2°34.239 7.020306 3.415093 33.563336 9.028187
2004-03-18 08:33:45 51°8.951 2°34.239 7.015148 3.414987 33.56136 8.994477
2004-03-18 08:33:49 51°8.951 2°34.239 7.017899 3.415093 33.561683 9.4327
2004-03-18 08:33:55 51°8.951 2°34.24 7.014903 3.415093 33.562509 9.331571
2004-03-18 08:33:59 51°8.951 2°34.24 7.014903 3.415093 33.562509 9.331571
2004-03-18 08:34:05 51°8.951 2°34.24 7.017113 3.415093 33.561683 9.028187
2004-03-18 08:34:09 51°8.952 2°34.24 7.017015 3.415198 33.562006 9.634956
2004-03-18 08:34:15 51°8.952 2°34.24 7.016376 3.415198 33.562006 8.960768
2004-03-18 08:34:20 51°8.952 2°34.24 7.017211 3.414987 33.56136 9.095606
2004-03-18 08:34:25 51°8.952 2°34.241 7.015738 3.414987 33.559707 9.668665
2004-03-18 08:34:29 51°8.952 2°34.241 7.015738 3.414987 33.559707 9.668665
2004-03-18 08:34:36 51°8.952 2°34.241 7.017506 3.414882 33.559384 9.668665
2004-03-18 08:34:41 51°8.952 2°34.241 7.015787 3.414987 33.560533 9.297862
2004-03-18 08:34:45 51°8.952 2°34.241 7.018046 3.414882 33.56021 9.4327
2004-03-18 08:34:50 51°8.952 2°34.241 7.01559 3.414882 33.559384 9.264153
2004-03-18 08:34:55 51°8.952 2°34.241 7.017211 3.414987 33.560533 9.365281
2004-03-18 08:35:00 51°8.952 2°34.241 7.017211 3.414987 33.560533 9.365281
2004-03-18 08:35:05 51°8.952 2°34.241 7.020011 3.414987 33.560533 9.500118
2004-03-18 08:35:09 51°8.952 2°34.241 7.019225 3.415093 33.560857 9.028187
2004-03-18 08:35:16 51°8.952 2°34.242 7.018587 3.414671 33.557911 9.163024
2004-03-18 08:35:21 51°8.953 2°34.243 7.019864 3.414777 33.557408 9.196734
2004-03-18 08:35:25 51°8.953 2°34.243 7.020994 3.414566 33.55511 8.994477
2004-03-18 08:35:31 51°8.953 2°34.244 7.020994 3.414566 33.55511 8.994477
2004-03-18 08:35:35 51°8.953 2°34.244 7.019569 3.414566 33.554283 9.297862
2004-03-18 08:35:40 51°8.953 2°34.244 7.021681 3.414671 33.554607 9.466409
2004-03-18 08:35:45 51°8.953 2°34.244 7.02232 3.41446 33.552308 9.297862
2004-03-18 08:35:51 51°8.953 2°34.243 7.023744 3.414355 33.550333 9.095606
2004-03-18 08:35:55 51°8.953 2°34.243 7.021288 3.414566 33.551805 9.196734